<?xml version="1.0" encoding="UTF-8" standalone="no" ?>
<gpx xmlns="http://www.topografix.com/GPX/1/1" xmlns:xsi="http://www.w3.org/2001/XMLSchema-instance" xsi:schemaLocation="http://www.topografix.com/GPX/1/1 http://www.topografix.com/GPX/1/1/gpx.xsd" version="1.1" creator="VisuGPX - https://www.visugpx.com">
  <metadata>
    <name>circuit Aussillon</name>
    <desc><![CDATA[départ Aussillon Village    rue Poursines]]></desc>
  </metadata>
  <trk>
    <name><![CDATA[2016-06-26 15:15:20]]></name>
    <trkseg>
      <trkpt lat="43.48857" lon="2.35456">
        <ele>310.64</ele>
        <time>2016-06-26T07:12:27Z</time>
      </trkpt>
      <trkpt lat="43.48856" lon="2.35458">
        <ele>310.16</ele>
        <time>2016-06-26T07:12:40Z</time>
      </trkpt>
      <trkpt lat="43.48858" lon="2.35453">
        <ele>312.09</ele>
        <time>2016-06-26T07:13:13Z</time>
      </trkpt>
      <trkpt lat="43.4885" lon="2.35449">
        <ele>311.6</ele>
        <time>2016-06-26T07:13:41Z</time>
      </trkpt>
      <trkpt lat="43.48854" lon="2.3545">
        <ele>314.49</ele>
        <time>2016-06-26T07:14:01Z</time>
      </trkpt>
      <trkpt lat="43.48853" lon="2.35446">
        <ele>320.26</ele>
        <time>2016-06-26T07:14:29Z</time>
      </trkpt>
      <trkpt lat="43.48854" lon="2.35446">
        <ele>317.37</ele>
        <time>2016-06-26T07:14:54Z</time>
      </trkpt>
      <trkpt lat="43.48852" lon="2.35443">
        <ele>315.45</ele>
        <time>2016-06-26T07:15:16Z</time>
      </trkpt>
      <trkpt lat="43.48855" lon="2.35438">
        <ele>314.01</ele>
        <time>2016-06-26T07:15:37Z</time>
      </trkpt>
      <trkpt lat="43.48858" lon="2.35454">
        <ele>314.01</ele>
        <time>2016-06-26T07:15:58Z</time>
      </trkpt>
      <trkpt lat="43.48859" lon="2.35456">
        <ele>314.01</ele>
        <time>2016-06-26T07:16:00Z</time>
      </trkpt>
      <trkpt lat="43.48857" lon="2.3547">
        <ele>317.37</ele>
        <time>2016-06-26T07:16:19Z</time>
      </trkpt>
      <trkpt lat="43.4885" lon="2.35464">
        <ele>316.89</ele>
        <time>2016-06-26T07:16:22Z</time>
      </trkpt>
      <trkpt lat="43.48821" lon="2.35457">
        <ele>315.93</ele>
        <time>2016-06-26T07:16:45Z</time>
      </trkpt>
      <trkpt lat="43.48797" lon="2.35462">
        <ele>315.45</ele>
        <time>2016-06-26T07:17:10Z</time>
      </trkpt>
      <trkpt lat="43.48782" lon="2.35457">
        <ele>315.93</ele>
        <time>2016-06-26T07:17:32Z</time>
      </trkpt>
      <trkpt lat="43.4875" lon="2.35468">
        <ele>316.41</ele>
        <time>2016-06-26T07:17:54Z</time>
      </trkpt>
      <trkpt lat="43.48735" lon="2.35471">
        <ele>316.41</ele>
        <time>2016-06-26T07:18:16Z</time>
      </trkpt>
      <trkpt lat="43.48637" lon="2.354">
        <ele>323.14</ele>
        <time>2016-06-26T07:22:48Z</time>
      </trkpt>
      <trkpt lat="43.48622" lon="2.3536">
        <ele>345.73</ele>
        <time>2016-06-26T07:23:06Z</time>
      </trkpt>
      <trkpt lat="43.48612" lon="2.35329">
        <ele>348.62</ele>
        <time>2016-06-26T07:23:28Z</time>
      </trkpt>
      <trkpt lat="43.48607" lon="2.35299">
        <ele>350.06</ele>
        <time>2016-06-26T07:23:49Z</time>
      </trkpt>
      <trkpt lat="43.48606" lon="2.35291">
        <ele>351.98</ele>
        <time>2016-06-26T07:24:08Z</time>
      </trkpt>
      <trkpt lat="43.48601" lon="2.3528">
        <ele>353.9</ele>
        <time>2016-06-26T07:24:17Z</time>
      </trkpt>
      <trkpt lat="43.48595" lon="2.3525">
        <ele>357.27</ele>
        <time>2016-06-26T07:24:41Z</time>
      </trkpt>
      <trkpt lat="43.48591" lon="2.35214">
        <ele>354.86</ele>
        <time>2016-06-26T07:25:07Z</time>
      </trkpt>
      <trkpt lat="43.48592" lon="2.35182">
        <ele>359.19</ele>
        <time>2016-06-26T07:25:34Z</time>
      </trkpt>
      <trkpt lat="43.48586" lon="2.35158">
        <ele>363.52</ele>
        <time>2016-06-26T07:25:58Z</time>
      </trkpt>
      <trkpt lat="43.48575" lon="2.35134">
        <ele>364.48</ele>
        <time>2016-06-26T07:26:12Z</time>
      </trkpt>
      <trkpt lat="43.48556" lon="2.3511">
        <ele>367.84</ele>
        <time>2016-06-26T07:26:40Z</time>
      </trkpt>
      <trkpt lat="43.48542" lon="2.35087">
        <ele>369.28</ele>
        <time>2016-06-26T07:27:05Z</time>
      </trkpt>
      <trkpt lat="43.48526" lon="2.35067">
        <ele>374.09</ele>
        <time>2016-06-26T07:27:26Z</time>
      </trkpt>
      <trkpt lat="43.48508" lon="2.35063">
        <ele>377.94</ele>
        <time>2016-06-26T07:27:49Z</time>
      </trkpt>
      <trkpt lat="43.48489" lon="2.35052">
        <ele>384.18</ele>
        <time>2016-06-26T07:28:06Z</time>
      </trkpt>
      <trkpt lat="43.48468" lon="2.35031">
        <ele>387.55</ele>
        <time>2016-06-26T07:28:28Z</time>
      </trkpt>
      <trkpt lat="43.48457" lon="2.35008">
        <ele>391.87</ele>
        <time>2016-06-26T07:28:50Z</time>
      </trkpt>
      <trkpt lat="43.48455" lon="2.34992">
        <ele>394.76</ele>
        <time>2016-06-26T07:29:11Z</time>
      </trkpt>
      <trkpt lat="43.48443" lon="2.34965">
        <ele>391.87</ele>
        <time>2016-06-26T07:29:35Z</time>
      </trkpt>
      <trkpt lat="43.48431" lon="2.34943">
        <ele>388.99</ele>
        <time>2016-06-26T07:29:54Z</time>
      </trkpt>
      <trkpt lat="43.48416" lon="2.34908">
        <ele>385.63</ele>
        <time>2016-06-26T07:30:22Z</time>
      </trkpt>
      <trkpt lat="43.4841" lon="2.34891">
        <ele>381.3</ele>
        <time>2016-06-26T07:30:47Z</time>
      </trkpt>
      <trkpt lat="43.48397" lon="2.34867">
        <ele>376.49</ele>
        <time>2016-06-26T07:31:11Z</time>
      </trkpt>
      <trkpt lat="43.48383" lon="2.34849">
        <ele>375.53</ele>
        <time>2016-06-26T07:31:33Z</time>
      </trkpt>
      <trkpt lat="43.48366" lon="2.34841">
        <ele>374.57</ele>
        <time>2016-06-26T07:31:56Z</time>
      </trkpt>
      <trkpt lat="43.4835" lon="2.34828">
        <ele>376.01</ele>
        <time>2016-06-26T07:32:19Z</time>
      </trkpt>
      <trkpt lat="43.48342" lon="2.34817">
        <ele>376.01</ele>
        <time>2016-06-26T07:32:40Z</time>
      </trkpt>
      <trkpt lat="43.48339" lon="2.34806">
        <ele>380.34</ele>
        <time>2016-06-26T07:33:03Z</time>
      </trkpt>
      <trkpt lat="43.48337" lon="2.34813">
        <ele>380.34</ele>
        <time>2016-06-26T07:33:29Z</time>
      </trkpt>
      <trkpt lat="43.48327" lon="2.34812">
        <ele>380.34</ele>
        <time>2016-06-26T07:33:46Z</time>
      </trkpt>
      <trkpt lat="43.48324" lon="2.3479">
        <ele>386.11</ele>
        <time>2016-06-26T07:34:04Z</time>
      </trkpt>
      <trkpt lat="43.48312" lon="2.34781">
        <ele>388.51</ele>
        <time>2016-06-26T07:34:21Z</time>
      </trkpt>
      <trkpt lat="43.48308" lon="2.34767">
        <ele>388.51</ele>
        <time>2016-06-26T07:34:42Z</time>
      </trkpt>
      <trkpt lat="43.48295" lon="2.34754">
        <ele>388.51</ele>
        <time>2016-06-26T07:35:01Z</time>
      </trkpt>
      <trkpt lat="43.4828" lon="2.34733">
        <ele>390.91</ele>
        <time>2016-06-26T07:35:23Z</time>
      </trkpt>
      <trkpt lat="43.48269" lon="2.3472">
        <ele>390.91</ele>
        <time>2016-06-26T07:35:44Z</time>
      </trkpt>
      <trkpt lat="43.4826" lon="2.34671">
        <ele>407.74</ele>
        <time>2016-06-26T07:36:07Z</time>
      </trkpt>
      <trkpt lat="43.48271" lon="2.34646">
        <ele>421.68</ele>
        <time>2016-06-26T07:36:32Z</time>
      </trkpt>
      <trkpt lat="43.48272" lon="2.34627">
        <ele>419.27</ele>
        <time>2016-06-26T07:36:56Z</time>
      </trkpt>
      <trkpt lat="43.48264" lon="2.34602">
        <ele>422.16</ele>
        <time>2016-06-26T07:37:20Z</time>
      </trkpt>
      <trkpt lat="43.48257" lon="2.3462">
        <ele>425.04</ele>
        <time>2016-06-26T07:37:42Z</time>
      </trkpt>
      <trkpt lat="43.48251" lon="2.3463">
        <ele>432.25</ele>
        <time>2016-06-26T07:38:01Z</time>
      </trkpt>
      <trkpt lat="43.48254" lon="2.34613">
        <ele>432.25</ele>
        <time>2016-06-26T07:38:25Z</time>
      </trkpt>
      <trkpt lat="43.4825" lon="2.34589">
        <ele>433.69</ele>
        <time>2016-06-26T07:38:50Z</time>
      </trkpt>
      <trkpt lat="43.48246" lon="2.34576">
        <ele>434.17</ele>
        <time>2016-06-26T07:39:14Z</time>
      </trkpt>
      <trkpt lat="43.48243" lon="2.34553">
        <ele>431.29</ele>
        <time>2016-06-26T07:39:32Z</time>
      </trkpt>
      <trkpt lat="43.48243" lon="2.34536">
        <ele>426.96</ele>
        <time>2016-06-26T07:39:56Z</time>
      </trkpt>
      <trkpt lat="43.48241" lon="2.34525">
        <ele>427.44</ele>
        <time>2016-06-26T07:40:22Z</time>
      </trkpt>
      <trkpt lat="43.48242" lon="2.34535">
        <ele>426.96</ele>
        <time>2016-06-26T07:40:40Z</time>
      </trkpt>
      <trkpt lat="43.48239" lon="2.34519">
        <ele>426.48</ele>
        <time>2016-06-26T07:41:02Z</time>
      </trkpt>
      <trkpt lat="43.48245" lon="2.34539">
        <ele>425.04</ele>
        <time>2016-06-26T07:41:24Z</time>
      </trkpt>
      <trkpt lat="43.48239" lon="2.34525">
        <ele>425.04</ele>
        <time>2016-06-26T07:41:47Z</time>
      </trkpt>
      <trkpt lat="43.48235" lon="2.3451">
        <ele>423.12</ele>
        <time>2016-06-26T07:42:10Z</time>
      </trkpt>
      <trkpt lat="43.48229" lon="2.34489">
        <ele>422.64</ele>
        <time>2016-06-26T07:42:35Z</time>
      </trkpt>
      <trkpt lat="43.48224" lon="2.34458">
        <ele>422.16</ele>
        <time>2016-06-26T07:43:01Z</time>
      </trkpt>
      <trkpt lat="43.48215" lon="2.34444">
        <ele>421.68</ele>
        <time>2016-06-26T07:43:24Z</time>
      </trkpt>
      <trkpt lat="43.48201" lon="2.34434">
        <ele>420.71</ele>
        <time>2016-06-26T07:43:42Z</time>
      </trkpt>
      <trkpt lat="43.48184" lon="2.34412">
        <ele>419.75</ele>
        <time>2016-06-26T07:44:10Z</time>
      </trkpt>
      <trkpt lat="43.4817" lon="2.34397">
        <ele>419.27</ele>
        <time>2016-06-26T07:44:33Z</time>
      </trkpt>
      <trkpt lat="43.48153" lon="2.34377">
        <ele>419.75</ele>
        <time>2016-06-26T07:44:54Z</time>
      </trkpt>
      <trkpt lat="43.48132" lon="2.34361">
        <ele>418.79</ele>
        <time>2016-06-26T07:45:16Z</time>
      </trkpt>
      <trkpt lat="43.48108" lon="2.34345">
        <ele>436.1</ele>
        <time>2016-06-26T07:45:41Z</time>
      </trkpt>
      <trkpt lat="43.4809" lon="2.34342">
        <ele>461.09</ele>
        <time>2016-06-26T07:46:03Z</time>
      </trkpt>
      <trkpt lat="43.48078" lon="2.34352">
        <ele>472.63</ele>
        <time>2016-06-26T07:46:27Z</time>
      </trkpt>
      <trkpt lat="43.48065" lon="2.34362">
        <ele>474.55</ele>
        <time>2016-06-26T07:46:50Z</time>
      </trkpt>
      <trkpt lat="43.48048" lon="2.34365">
        <ele>481.76</ele>
        <time>2016-06-26T07:47:15Z</time>
      </trkpt>
      <trkpt lat="43.48053" lon="2.34367">
        <ele>486.08</ele>
        <time>2016-06-26T07:47:40Z</time>
      </trkpt>
      <trkpt lat="43.48074" lon="2.34374">
        <ele>484.64</ele>
        <time>2016-06-26T07:48:09Z</time>
      </trkpt>
      <trkpt lat="43.48095" lon="2.34378">
        <ele>481.28</ele>
        <time>2016-06-26T07:48:29Z</time>
      </trkpt>
      <trkpt lat="43.48116" lon="2.34387">
        <ele>474.55</ele>
        <time>2016-06-26T07:48:56Z</time>
      </trkpt>
      <trkpt lat="43.48138" lon="2.34398">
        <ele>466.86</ele>
        <time>2016-06-26T07:49:21Z</time>
      </trkpt>
      <trkpt lat="43.4816" lon="2.34417">
        <ele>454.84</ele>
        <time>2016-06-26T07:49:46Z</time>
      </trkpt>
      <trkpt lat="43.48173" lon="2.34438">
        <ele>440.42</ele>
        <time>2016-06-26T07:50:12Z</time>
      </trkpt>
      <trkpt lat="43.48181" lon="2.34466">
        <ele>430.33</ele>
        <time>2016-06-26T07:50:37Z</time>
      </trkpt>
      <trkpt lat="43.48183" lon="2.34492">
        <ele>421.19</ele>
        <time>2016-06-26T07:50:58Z</time>
      </trkpt>
      <trkpt lat="43.48185" lon="2.34513">
        <ele>409.18</ele>
        <time>2016-06-26T07:51:21Z</time>
      </trkpt>
      <trkpt lat="43.48175" lon="2.34545">
        <ele>451.48</ele>
        <time>2016-06-26T07:51:45Z</time>
      </trkpt>
      <trkpt lat="43.48171" lon="2.34547">
        <ele>455.32</ele>
        <time>2016-06-26T07:52:11Z</time>
      </trkpt>
      <trkpt lat="43.48178" lon="2.34554">
        <ele>439.94</ele>
        <time>2016-06-26T07:52:36Z</time>
      </trkpt>
      <trkpt lat="43.48181" lon="2.34547">
        <ele>445.23</ele>
        <time>2016-06-26T07:52:59Z</time>
      </trkpt>
      <trkpt lat="43.4817" lon="2.34523">
        <ele>504.83</ele>
        <time>2016-06-26T07:53:24Z</time>
      </trkpt>
      <trkpt lat="43.48166" lon="2.34522">
        <ele>508.67</ele>
        <time>2016-06-26T07:53:53Z</time>
      </trkpt>
      <trkpt lat="43.48168" lon="2.34522">
        <ele>512.04</ele>
        <time>2016-06-26T07:54:15Z</time>
      </trkpt>
      <trkpt lat="43.48164" lon="2.34522">
        <ele>513.96</ele>
        <time>2016-06-26T07:54:39Z</time>
      </trkpt>
      <trkpt lat="43.48161" lon="2.34525">
        <ele>513.96</ele>
        <time>2016-06-26T07:54:58Z</time>
      </trkpt>
      <trkpt lat="43.48166" lon="2.34526">
        <ele>515.88</ele>
        <time>2016-06-26T07:55:19Z</time>
      </trkpt>
      <trkpt lat="43.48171" lon="2.34523">
        <ele>513</ele>
        <time>2016-06-26T07:55:35Z</time>
      </trkpt>
      <trkpt lat="43.48176" lon="2.345">
        <ele>505.31</ele>
        <time>2016-06-26T07:55:54Z</time>
      </trkpt>
      <trkpt lat="43.4818" lon="2.34478">
        <ele>500.02</ele>
        <time>2016-06-26T07:56:09Z</time>
      </trkpt>
      <trkpt lat="43.48185" lon="2.34456">
        <ele>490.89</ele>
        <time>2016-06-26T07:56:25Z</time>
      </trkpt>
      <trkpt lat="43.48183" lon="2.34435">
        <ele>479.84</ele>
        <time>2016-06-26T07:56:43Z</time>
      </trkpt>
      <trkpt lat="43.48168" lon="2.34419">
        <ele>471.66</ele>
        <time>2016-06-26T07:57:01Z</time>
      </trkpt>
      <trkpt lat="43.48155" lon="2.34404">
        <ele>463.49</ele>
        <time>2016-06-26T07:57:19Z</time>
      </trkpt>
      <trkpt lat="43.48138" lon="2.34395">
        <ele>455.32</ele>
        <time>2016-06-26T07:57:39Z</time>
      </trkpt>
      <trkpt lat="43.48121" lon="2.34383">
        <ele>450.52</ele>
        <time>2016-06-26T07:57:56Z</time>
      </trkpt>
      <trkpt lat="43.48109" lon="2.34373">
        <ele>446.67</ele>
        <time>2016-06-26T07:58:14Z</time>
      </trkpt>
      <trkpt lat="43.48096" lon="2.34376">
        <ele>438.98</ele>
        <time>2016-06-26T07:58:31Z</time>
      </trkpt>
      <trkpt lat="43.48088" lon="2.34372">
        <ele>433.21</ele>
        <time>2016-06-26T07:58:45Z</time>
      </trkpt>
      <trkpt lat="43.48073" lon="2.34374">
        <ele>421.68</ele>
        <time>2016-06-26T07:59:05Z</time>
      </trkpt>
      <trkpt lat="43.48068" lon="2.34372">
        <ele>417.35</ele>
        <time>2016-06-26T07:59:25Z</time>
      </trkpt>
      <trkpt lat="43.48061" lon="2.34358">
        <ele>416.39</ele>
        <time>2016-06-26T07:59:41Z</time>
      </trkpt>
      <trkpt lat="43.48067" lon="2.34342">
        <ele>418.79</ele>
        <time>2016-06-26T07:59:56Z</time>
      </trkpt>
      <trkpt lat="43.48085" lon="2.34332">
        <ele>420.71</ele>
        <time>2016-06-26T08:00:17Z</time>
      </trkpt>
      <trkpt lat="43.48098" lon="2.34316">
        <ele>419.75</ele>
        <time>2016-06-26T08:00:36Z</time>
      </trkpt>
      <trkpt lat="43.48102" lon="2.34299">
        <ele>414.95</ele>
        <time>2016-06-26T08:00:57Z</time>
      </trkpt>
      <trkpt lat="43.48098" lon="2.34277">
        <ele>415.43</ele>
        <time>2016-06-26T08:01:13Z</time>
      </trkpt>
      <trkpt lat="43.48081" lon="2.34256">
        <ele>420.71</ele>
        <time>2016-06-26T08:01:33Z</time>
      </trkpt>
      <trkpt lat="43.48069" lon="2.34243">
        <ele>424.08</ele>
        <time>2016-06-26T08:01:53Z</time>
      </trkpt>
      <trkpt lat="43.48064" lon="2.34248">
        <ele>427.44</ele>
        <time>2016-06-26T08:02:16Z</time>
      </trkpt>
      <trkpt lat="43.48058" lon="2.34265">
        <ele>432.73</ele>
        <time>2016-06-26T08:02:37Z</time>
      </trkpt>
      <trkpt lat="43.48054" lon="2.34257">
        <ele>442.34</ele>
        <time>2016-06-26T08:02:55Z</time>
      </trkpt>
      <trkpt lat="43.48045" lon="2.34247">
        <ele>450.52</ele>
        <time>2016-06-26T08:03:13Z</time>
      </trkpt>
      <trkpt lat="43.48038" lon="2.34241">
        <ele>454.84</ele>
        <time>2016-06-26T08:03:32Z</time>
      </trkpt>
      <trkpt lat="43.48036" lon="2.34226">
        <ele>456.76</ele>
        <time>2016-06-26T08:03:51Z</time>
      </trkpt>
      <trkpt lat="43.48033" lon="2.34212">
        <ele>463.49</ele>
        <time>2016-06-26T08:04:10Z</time>
      </trkpt>
      <trkpt lat="43.4803" lon="2.34202">
        <ele>467.34</ele>
        <time>2016-06-26T08:04:29Z</time>
      </trkpt>
      <trkpt lat="43.48028" lon="2.3418">
        <ele>474.07</ele>
        <time>2016-06-26T08:04:52Z</time>
      </trkpt>
      <trkpt lat="43.48025" lon="2.34162">
        <ele>478.39</ele>
        <time>2016-06-26T08:05:13Z</time>
      </trkpt>
      <trkpt lat="43.4802" lon="2.34148">
        <ele>479.35</ele>
        <time>2016-06-26T08:05:36Z</time>
      </trkpt>
      <trkpt lat="43.48019" lon="2.34129">
        <ele>482.24</ele>
        <time>2016-06-26T08:05:59Z</time>
      </trkpt>
      <trkpt lat="43.48018" lon="2.34116">
        <ele>486.08</ele>
        <time>2016-06-26T08:06:18Z</time>
      </trkpt>
      <trkpt lat="43.48011" lon="2.3411">
        <ele>492.81</ele>
        <time>2016-06-26T08:06:36Z</time>
      </trkpt>
      <trkpt lat="43.48004" lon="2.34108">
        <ele>501.46</ele>
        <time>2016-06-26T08:06:53Z</time>
      </trkpt>
      <trkpt lat="43.48005" lon="2.34104">
        <ele>517.33</ele>
        <time>2016-06-26T08:07:20Z</time>
      </trkpt>
      <trkpt lat="43.48002" lon="2.34114">
        <ele>521.17</ele>
        <time>2016-06-26T08:07:43Z</time>
      </trkpt>
      <trkpt lat="43.48003" lon="2.34112">
        <ele>525.5</ele>
        <time>2016-06-26T08:08:09Z</time>
      </trkpt>
      <trkpt lat="43.47999" lon="2.34113">
        <ele>527.9</ele>
        <time>2016-06-26T08:08:34Z</time>
      </trkpt>
      <trkpt lat="43.48" lon="2.34117">
        <ele>531.27</ele>
        <time>2016-06-26T08:08:57Z</time>
      </trkpt>
      <trkpt lat="43.48005" lon="2.34112">
        <ele>532.23</ele>
        <time>2016-06-26T08:09:17Z</time>
      </trkpt>
      <trkpt lat="43.48006" lon="2.34109">
        <ele>530.3</ele>
        <time>2016-06-26T08:09:35Z</time>
      </trkpt>
      <trkpt lat="43.48007" lon="2.34113">
        <ele>531.27</ele>
        <time>2016-06-26T08:10:00Z</time>
      </trkpt>
      <trkpt lat="43.48002" lon="2.34114">
        <ele>529.34</ele>
        <time>2016-06-26T08:10:29Z</time>
      </trkpt>
      <trkpt lat="43.47999" lon="2.34122">
        <ele>529.82</ele>
        <time>2016-06-26T08:10:59Z</time>
      </trkpt>
      <trkpt lat="43.48" lon="2.34123">
        <ele>530.79</ele>
        <time>2016-06-26T08:11:31Z</time>
      </trkpt>
      <trkpt lat="43.47999" lon="2.34114">
        <ele>531.75</ele>
        <time>2016-06-26T08:11:57Z</time>
      </trkpt>
      <trkpt lat="43.47999" lon="2.34118">
        <ele>532.71</ele>
        <time>2016-06-26T08:12:23Z</time>
      </trkpt>
      <trkpt lat="43.4799" lon="2.34109">
        <ele>528.38</ele>
        <time>2016-06-26T08:12:43Z</time>
      </trkpt>
      <trkpt lat="43.47974" lon="2.34101">
        <ele>520.21</ele>
        <time>2016-06-26T08:13:01Z</time>
      </trkpt>
      <trkpt lat="43.47959" lon="2.34086">
        <ele>510.6</ele>
        <time>2016-06-26T08:13:20Z</time>
      </trkpt>
      <trkpt lat="43.47948" lon="2.34071">
        <ele>502.43</ele>
        <time>2016-06-26T08:13:36Z</time>
      </trkpt>
      <trkpt lat="43.47936" lon="2.34051">
        <ele>494.74</ele>
        <time>2016-06-26T08:13:54Z</time>
      </trkpt>
      <trkpt lat="43.47922" lon="2.34029">
        <ele>488.01</ele>
        <time>2016-06-26T08:14:12Z</time>
      </trkpt>
      <trkpt lat="43.47914" lon="2.34007">
        <ele>484.16</ele>
        <time>2016-06-26T08:14:30Z</time>
      </trkpt>
      <trkpt lat="43.47901" lon="2.33988">
        <ele>478.39</ele>
        <time>2016-06-26T08:14:49Z</time>
      </trkpt>
      <trkpt lat="43.47887" lon="2.33973">
        <ele>475.03</ele>
        <time>2016-06-26T08:15:08Z</time>
      </trkpt>
      <trkpt lat="43.47873" lon="2.33961">
        <ele>469.26</ele>
        <time>2016-06-26T08:15:27Z</time>
      </trkpt>
      <trkpt lat="43.47866" lon="2.33937">
        <ele>467.82</ele>
        <time>2016-06-26T08:15:47Z</time>
      </trkpt>
      <trkpt lat="43.4786" lon="2.33922">
        <ele>470.22</ele>
        <time>2016-06-26T08:16:07Z</time>
      </trkpt>
      <trkpt lat="43.47844" lon="2.33916">
        <ele>475.03</ele>
        <time>2016-06-26T08:16:26Z</time>
      </trkpt>
      <trkpt lat="43.47836" lon="2.3391">
        <ele>483.2</ele>
        <time>2016-06-26T08:16:42Z</time>
      </trkpt>
      <trkpt lat="43.47823" lon="2.33903">
        <ele>504.35</ele>
        <time>2016-06-26T08:16:58Z</time>
      </trkpt>
      <trkpt lat="43.47811" lon="2.33895">
        <ele>517.81</ele>
        <time>2016-06-26T08:17:16Z</time>
      </trkpt>
      <trkpt lat="43.47803" lon="2.33886">
        <ele>515.88</ele>
        <time>2016-06-26T08:17:35Z</time>
      </trkpt>
      <trkpt lat="43.47793" lon="2.33869">
        <ele>518.29</ele>
        <time>2016-06-26T08:17:56Z</time>
      </trkpt>
      <trkpt lat="43.47787" lon="2.33854">
        <ele>513.48</ele>
        <time>2016-06-26T08:18:18Z</time>
      </trkpt>
      <trkpt lat="43.47788" lon="2.33837">
        <ele>511.56</ele>
        <time>2016-06-26T08:18:36Z</time>
      </trkpt>
      <trkpt lat="43.47791" lon="2.33817">
        <ele>504.83</ele>
        <time>2016-06-26T08:18:56Z</time>
      </trkpt>
      <trkpt lat="43.47797" lon="2.33796">
        <ele>501.46</ele>
        <time>2016-06-26T08:19:15Z</time>
      </trkpt>
      <trkpt lat="43.47803" lon="2.33774">
        <ele>496.66</ele>
        <time>2016-06-26T08:19:37Z</time>
      </trkpt>
      <trkpt lat="43.47806" lon="2.33749">
        <ele>499.06</ele>
        <time>2016-06-26T08:19:57Z</time>
      </trkpt>
      <trkpt lat="43.47806" lon="2.3373">
        <ele>498.1</ele>
        <time>2016-06-26T08:20:16Z</time>
      </trkpt>
      <trkpt lat="43.47803" lon="2.33714">
        <ele>499.54</ele>
        <time>2016-06-26T08:20:34Z</time>
      </trkpt>
      <trkpt lat="43.478" lon="2.33694">
        <ele>501.46</ele>
        <time>2016-06-26T08:20:54Z</time>
      </trkpt>
      <trkpt lat="43.47799" lon="2.33665">
        <ele>509.64</ele>
        <time>2016-06-26T08:21:16Z</time>
      </trkpt>
      <trkpt lat="43.47802" lon="2.33646">
        <ele>513.96</ele>
        <time>2016-06-26T08:21:37Z</time>
      </trkpt>
      <trkpt lat="43.47799" lon="2.33628">
        <ele>520.21</ele>
        <time>2016-06-26T08:21:56Z</time>
      </trkpt>
      <trkpt lat="43.47799" lon="2.33611">
        <ele>526.46</ele>
        <time>2016-06-26T08:22:16Z</time>
      </trkpt>
      <trkpt lat="43.47807" lon="2.33591">
        <ele>527.42</ele>
        <time>2016-06-26T08:22:37Z</time>
      </trkpt>
      <trkpt lat="43.47814" lon="2.33567">
        <ele>526.94</ele>
        <time>2016-06-26T08:22:59Z</time>
      </trkpt>
      <trkpt lat="43.47819" lon="2.33559">
        <ele>534.63</ele>
        <time>2016-06-26T08:23:15Z</time>
      </trkpt>
      <trkpt lat="43.47825" lon="2.33548">
        <ele>535.59</ele>
        <time>2016-06-26T08:23:32Z</time>
      </trkpt>
      <trkpt lat="43.47832" lon="2.33536">
        <ele>534.15</ele>
        <time>2016-06-26T08:23:51Z</time>
      </trkpt>
      <trkpt lat="43.47836" lon="2.33524">
        <ele>537.51</ele>
        <time>2016-06-26T08:24:05Z</time>
      </trkpt>
      <trkpt lat="43.47839" lon="2.33517">
        <ele>540.4</ele>
        <time>2016-06-26T08:24:23Z</time>
      </trkpt>
      <trkpt lat="43.4783" lon="2.33508">
        <ele>543.76</ele>
        <time>2016-06-26T08:24:43Z</time>
      </trkpt>
      <trkpt lat="43.47828" lon="2.33498">
        <ele>541.36</ele>
        <time>2016-06-26T08:25:01Z</time>
      </trkpt>
      <trkpt lat="43.47826" lon="2.33474">
        <ele>538.96</ele>
        <time>2016-06-26T08:25:21Z</time>
      </trkpt>
      <trkpt lat="43.47826" lon="2.33451">
        <ele>532.71</ele>
        <time>2016-06-26T08:25:43Z</time>
      </trkpt>
      <trkpt lat="43.47838" lon="2.33438">
        <ele>526.46</ele>
        <time>2016-06-26T08:26:05Z</time>
      </trkpt>
      <trkpt lat="43.47845" lon="2.33446">
        <ele>532.71</ele>
        <time>2016-06-26T08:26:26Z</time>
      </trkpt>
      <trkpt lat="43.47849" lon="2.33465">
        <ele>541.36</ele>
        <time>2016-06-26T08:26:45Z</time>
      </trkpt>
      <trkpt lat="43.47857" lon="2.33474">
        <ele>536.07</ele>
        <time>2016-06-26T08:27:06Z</time>
      </trkpt>
      <trkpt lat="43.47868" lon="2.33479">
        <ele>530.3</ele>
        <time>2016-06-26T08:27:25Z</time>
      </trkpt>
      <trkpt lat="43.47876" lon="2.33477">
        <ele>525.5</ele>
        <time>2016-06-26T08:27:48Z</time>
      </trkpt>
      <trkpt lat="43.47886" lon="2.33473">
        <ele>529.34</ele>
        <time>2016-06-26T08:28:12Z</time>
      </trkpt>
      <trkpt lat="43.47902" lon="2.33464">
        <ele>524.06</ele>
        <time>2016-06-26T08:28:35Z</time>
      </trkpt>
      <trkpt lat="43.47919" lon="2.33454">
        <ele>516.37</ele>
        <time>2016-06-26T08:28:59Z</time>
      </trkpt>
      <trkpt lat="43.47924" lon="2.33426">
        <ele>517.81</ele>
        <time>2016-06-26T08:29:20Z</time>
      </trkpt>
      <trkpt lat="43.47918" lon="2.33397">
        <ele>524.06</ele>
        <time>2016-06-26T08:29:44Z</time>
      </trkpt>
      <trkpt lat="43.47906" lon="2.33384">
        <ele>552.41</ele>
        <time>2016-06-26T08:29:57Z</time>
      </trkpt>
      <trkpt lat="43.47906" lon="2.3338">
        <ele>558.18</ele>
        <time>2016-06-26T08:30:12Z</time>
      </trkpt>
      <trkpt lat="43.47907" lon="2.33381">
        <ele>563.95</ele>
        <time>2016-06-26T08:30:30Z</time>
      </trkpt>
      <trkpt lat="43.47908" lon="2.33378">
        <ele>567.8</ele>
        <time>2016-06-26T08:30:45Z</time>
      </trkpt>
      <trkpt lat="43.47911" lon="2.33368">
        <ele>575.01</ele>
        <time>2016-06-26T08:31:04Z</time>
      </trkpt>
      <trkpt lat="43.47916" lon="2.33365">
        <ele>582.22</ele>
        <time>2016-06-26T08:31:19Z</time>
      </trkpt>
      <trkpt lat="43.47918" lon="2.33369">
        <ele>593.75</ele>
        <time>2016-06-26T08:31:38Z</time>
      </trkpt>
      <trkpt lat="43.47918" lon="2.33371">
        <ele>596.64</ele>
        <time>2016-06-26T08:31:58Z</time>
      </trkpt>
      <trkpt lat="43.47919" lon="2.33371">
        <ele>601.44</ele>
        <time>2016-06-26T08:32:19Z</time>
      </trkpt>
      <trkpt lat="43.47923" lon="2.3336">
        <ele>604.33</ele>
        <time>2016-06-26T08:32:37Z</time>
      </trkpt>
      <trkpt lat="43.47923" lon="2.33358">
        <ele>604.81</ele>
        <time>2016-06-26T08:32:58Z</time>
      </trkpt>
      <trkpt lat="43.47925" lon="2.33352">
        <ele>605.29</ele>
        <time>2016-06-26T08:33:21Z</time>
      </trkpt>
      <trkpt lat="43.47918" lon="2.3334">
        <ele>603.36</ele>
        <time>2016-06-26T08:33:41Z</time>
      </trkpt>
      <trkpt lat="43.47914" lon="2.33333">
        <ele>602.4</ele>
        <time>2016-06-26T08:33:57Z</time>
      </trkpt>
      <trkpt lat="43.47909" lon="2.33323">
        <ele>600</ele>
        <time>2016-06-26T08:34:13Z</time>
      </trkpt>
      <trkpt lat="43.47899" lon="2.33314">
        <ele>598.08</ele>
        <time>2016-06-26T08:34:31Z</time>
      </trkpt>
      <trkpt lat="43.47888" lon="2.33303">
        <ele>599.04</ele>
        <time>2016-06-26T08:34:49Z</time>
      </trkpt>
      <trkpt lat="43.4788" lon="2.33292">
        <ele>599.04</ele>
        <time>2016-06-26T08:35:04Z</time>
      </trkpt>
      <trkpt lat="43.4787" lon="2.33281">
        <ele>599.04</ele>
        <time>2016-06-26T08:35:21Z</time>
      </trkpt>
      <trkpt lat="43.47848" lon="2.33284">
        <ele>614.42</ele>
        <time>2016-06-26T08:35:39Z</time>
      </trkpt>
      <trkpt lat="43.47836" lon="2.33291">
        <ele>615.38</ele>
        <time>2016-06-26T08:35:55Z</time>
      </trkpt>
      <trkpt lat="43.47821" lon="2.33295">
        <ele>613.46</ele>
        <time>2016-06-26T08:36:13Z</time>
      </trkpt>
      <trkpt lat="43.47804" lon="2.3329">
        <ele>611.54</ele>
        <time>2016-06-26T08:36:34Z</time>
      </trkpt>
      <trkpt lat="43.47789" lon="2.33283">
        <ele>612.98</ele>
        <time>2016-06-26T08:36:53Z</time>
      </trkpt>
      <trkpt lat="43.47779" lon="2.33267">
        <ele>612.02</ele>
        <time>2016-06-26T08:37:14Z</time>
      </trkpt>
      <trkpt lat="43.47777" lon="2.33245">
        <ele>608.65</ele>
        <time>2016-06-26T08:37:37Z</time>
      </trkpt>
      <trkpt lat="43.47773" lon="2.33225">
        <ele>603.85</ele>
        <time>2016-06-26T08:37:56Z</time>
      </trkpt>
      <trkpt lat="43.47769" lon="2.33203">
        <ele>600.96</ele>
        <time>2016-06-26T08:38:17Z</time>
      </trkpt>
      <trkpt lat="43.47763" lon="2.33184">
        <ele>597.6</ele>
        <time>2016-06-26T08:38:36Z</time>
      </trkpt>
      <trkpt lat="43.47762" lon="2.33159">
        <ele>591.83</ele>
        <time>2016-06-26T08:38:55Z</time>
      </trkpt>
      <trkpt lat="43.47763" lon="2.33137">
        <ele>588.46</ele>
        <time>2016-06-26T08:39:14Z</time>
      </trkpt>
      <trkpt lat="43.47768" lon="2.33109">
        <ele>587.5</ele>
        <time>2016-06-26T08:39:38Z</time>
      </trkpt>
      <trkpt lat="43.4777" lon="2.33087">
        <ele>587.02</ele>
        <time>2016-06-26T08:39:57Z</time>
      </trkpt>
      <trkpt lat="43.47772" lon="2.3306">
        <ele>592.31</ele>
        <time>2016-06-26T08:40:19Z</time>
      </trkpt>
      <trkpt lat="43.47776" lon="2.33041">
        <ele>587.02</ele>
        <time>2016-06-26T08:40:38Z</time>
      </trkpt>
      <trkpt lat="43.47781" lon="2.33021">
        <ele>582.7</ele>
        <time>2016-06-26T08:40:56Z</time>
      </trkpt>
      <trkpt lat="43.47781" lon="2.33002">
        <ele>579.33</ele>
        <time>2016-06-26T08:41:14Z</time>
      </trkpt>
      <trkpt lat="43.47772" lon="2.32978">
        <ele>574.53</ele>
        <time>2016-06-26T08:41:36Z</time>
      </trkpt>
      <trkpt lat="43.47765" lon="2.32958">
        <ele>567.32</ele>
        <time>2016-06-26T08:42:01Z</time>
      </trkpt>
      <trkpt lat="43.47751" lon="2.32929">
        <ele>567.8</ele>
        <time>2016-06-26T08:42:25Z</time>
      </trkpt>
      <trkpt lat="43.47723" lon="2.32916">
        <ele>586.06</ele>
        <time>2016-06-26T08:42:49Z</time>
      </trkpt>
      <trkpt lat="43.4771" lon="2.32909">
        <ele>594.23</ele>
        <time>2016-06-26T08:43:10Z</time>
      </trkpt>
      <trkpt lat="43.47698" lon="2.32897">
        <ele>600</ele>
        <time>2016-06-26T08:43:34Z</time>
      </trkpt>
      <trkpt lat="43.47693" lon="2.32883">
        <ele>602.4</ele>
        <time>2016-06-26T08:43:56Z</time>
      </trkpt>
      <trkpt lat="43.47684" lon="2.3287">
        <ele>612.98</ele>
        <time>2016-06-26T08:44:17Z</time>
      </trkpt>
      <trkpt lat="43.47671" lon="2.32853">
        <ele>622.11</ele>
        <time>2016-06-26T08:44:39Z</time>
      </trkpt>
      <trkpt lat="43.47668" lon="2.32831">
        <ele>624.03</ele>
        <time>2016-06-26T08:44:56Z</time>
      </trkpt>
      <trkpt lat="43.47666" lon="2.32812">
        <ele>622.59</ele>
        <time>2016-06-26T08:45:15Z</time>
      </trkpt>
      <trkpt lat="43.47656" lon="2.32786">
        <ele>617.78</ele>
        <time>2016-06-26T08:45:37Z</time>
      </trkpt>
      <trkpt lat="43.47649" lon="2.32768">
        <ele>604.33</ele>
        <time>2016-06-26T08:46:00Z</time>
      </trkpt>
      <trkpt lat="43.47637" lon="2.32763">
        <ele>597.6</ele>
        <time>2016-06-26T08:46:19Z</time>
      </trkpt>
      <trkpt lat="43.4762" lon="2.32754">
        <ele>601.92</ele>
        <time>2016-06-26T08:46:38Z</time>
      </trkpt>
      <trkpt lat="43.4761" lon="2.32738">
        <ele>603.85</ele>
        <time>2016-06-26T08:47:00Z</time>
      </trkpt>
      <trkpt lat="43.47595" lon="2.32722">
        <ele>605.77</ele>
        <time>2016-06-26T08:47:20Z</time>
      </trkpt>
      <trkpt lat="43.47586" lon="2.32703">
        <ele>602.4</ele>
        <time>2016-06-26T08:47:41Z</time>
      </trkpt>
      <trkpt lat="43.47572" lon="2.32678">
        <ele>601.44</ele>
        <time>2016-06-26T08:48:04Z</time>
      </trkpt>
      <trkpt lat="43.47561" lon="2.32662">
        <ele>594.23</ele>
        <time>2016-06-26T08:48:26Z</time>
      </trkpt>
      <trkpt lat="43.47545" lon="2.32644">
        <ele>595.67</ele>
        <time>2016-06-26T08:48:47Z</time>
      </trkpt>
      <trkpt lat="43.47523" lon="2.32625">
        <ele>608.17</ele>
        <time>2016-06-26T08:49:10Z</time>
      </trkpt>
      <trkpt lat="43.47513" lon="2.32618">
        <ele>604.33</ele>
        <time>2016-06-26T08:49:30Z</time>
      </trkpt>
      <trkpt lat="43.47502" lon="2.32613">
        <ele>609.61</ele>
        <time>2016-06-26T08:49:51Z</time>
      </trkpt>
      <trkpt lat="43.47473" lon="2.326">
        <ele>632.68</ele>
        <time>2016-06-26T08:50:14Z</time>
      </trkpt>
      <trkpt lat="43.47447" lon="2.32596">
        <ele>649.03</ele>
        <time>2016-06-26T08:50:32Z</time>
      </trkpt>
      <trkpt lat="43.47426" lon="2.32588">
        <ele>666.33</ele>
        <time>2016-06-26T08:50:55Z</time>
      </trkpt>
      <trkpt lat="43.47416" lon="2.32572">
        <ele>670.66</ele>
        <time>2016-06-26T08:51:12Z</time>
      </trkpt>
      <trkpt lat="43.47405" lon="2.32554">
        <ele>677.39</ele>
        <time>2016-06-26T08:51:30Z</time>
      </trkpt>
      <trkpt lat="43.47394" lon="2.32538">
        <ele>683.15</ele>
        <time>2016-06-26T08:51:48Z</time>
      </trkpt>
      <trkpt lat="43.47384" lon="2.32522">
        <ele>684.6</ele>
        <time>2016-06-26T08:52:04Z</time>
      </trkpt>
      <trkpt lat="43.47375" lon="2.32502">
        <ele>686.04</ele>
        <time>2016-06-26T08:52:22Z</time>
      </trkpt>
      <trkpt lat="43.47369" lon="2.3248">
        <ele>686.52</ele>
        <time>2016-06-26T08:52:41Z</time>
      </trkpt>
      <trkpt lat="43.47368" lon="2.32463">
        <ele>682.67</ele>
        <time>2016-06-26T08:52:59Z</time>
      </trkpt>
      <trkpt lat="43.47375" lon="2.32442">
        <ele>679.31</ele>
        <time>2016-06-26T08:53:12Z</time>
      </trkpt>
      <trkpt lat="43.4738" lon="2.32426">
        <ele>675.46</ele>
        <time>2016-06-26T08:53:24Z</time>
      </trkpt>
      <trkpt lat="43.47377" lon="2.32417">
        <ele>670.18</ele>
        <time>2016-06-26T08:53:38Z</time>
      </trkpt>
      <trkpt lat="43.47382" lon="2.32398">
        <ele>663.93</ele>
        <time>2016-06-26T08:53:55Z</time>
      </trkpt>
      <trkpt lat="43.47376" lon="2.32379">
        <ele>662.49</ele>
        <time>2016-06-26T08:54:13Z</time>
      </trkpt>
      <trkpt lat="43.47372" lon="2.32346">
        <ele>657.68</ele>
        <time>2016-06-26T08:54:36Z</time>
      </trkpt>
      <trkpt lat="43.47368" lon="2.32315">
        <ele>660.56</ele>
        <time>2016-06-26T08:54:58Z</time>
      </trkpt>
      <trkpt lat="43.47376" lon="2.32293">
        <ele>676.42</ele>
        <time>2016-06-26T08:55:15Z</time>
      </trkpt>
      <trkpt lat="43.47368" lon="2.32272">
        <ele>683.15</ele>
        <time>2016-06-26T08:55:34Z</time>
      </trkpt>
      <trkpt lat="43.47361" lon="2.32253">
        <ele>690.36</ele>
        <time>2016-06-26T08:55:51Z</time>
      </trkpt>
      <trkpt lat="43.47359" lon="2.32235">
        <ele>689.88</ele>
        <time>2016-06-26T08:56:09Z</time>
      </trkpt>
      <trkpt lat="43.47355" lon="2.32215">
        <ele>687.48</ele>
        <time>2016-06-26T08:56:26Z</time>
      </trkpt>
      <trkpt lat="43.47353" lon="2.32191">
        <ele>684.12</ele>
        <time>2016-06-26T08:56:45Z</time>
      </trkpt>
      <trkpt lat="43.47348" lon="2.32169">
        <ele>677.87</ele>
        <time>2016-06-26T08:57:08Z</time>
      </trkpt>
      <trkpt lat="43.47329" lon="2.32153">
        <ele>678.83</ele>
        <time>2016-06-26T08:57:30Z</time>
      </trkpt>
      <trkpt lat="43.47311" lon="2.32147">
        <ele>680.27</ele>
        <time>2016-06-26T08:57:50Z</time>
      </trkpt>
      <trkpt lat="43.47294" lon="2.32141">
        <ele>686.52</ele>
        <time>2016-06-26T08:58:08Z</time>
      </trkpt>
      <trkpt lat="43.47276" lon="2.32138">
        <ele>692.77</ele>
        <time>2016-06-26T08:58:27Z</time>
      </trkpt>
      <trkpt lat="43.47259" lon="2.3214">
        <ele>694.21</ele>
        <time>2016-06-26T08:58:47Z</time>
      </trkpt>
      <trkpt lat="43.47238" lon="2.32144">
        <ele>697.09</ele>
        <time>2016-06-26T08:59:08Z</time>
      </trkpt>
      <trkpt lat="43.47217" lon="2.3215">
        <ele>700.46</ele>
        <time>2016-06-26T08:59:28Z</time>
      </trkpt>
      <trkpt lat="43.472" lon="2.32156">
        <ele>701.42</ele>
        <time>2016-06-26T08:59:45Z</time>
      </trkpt>
      <trkpt lat="43.47186" lon="2.32164">
        <ele>699.5</ele>
        <time>2016-06-26T09:00:02Z</time>
      </trkpt>
      <trkpt lat="43.47172" lon="2.32171">
        <ele>698.53</ele>
        <time>2016-06-26T09:00:20Z</time>
      </trkpt>
      <trkpt lat="43.47154" lon="2.32183">
        <ele>699.02</ele>
        <time>2016-06-26T09:00:42Z</time>
      </trkpt>
      <trkpt lat="43.4714" lon="2.32197">
        <ele>699.02</ele>
        <time>2016-06-26T09:01:04Z</time>
      </trkpt>
      <trkpt lat="43.47123" lon="2.32207">
        <ele>701.42</ele>
        <time>2016-06-26T09:01:28Z</time>
      </trkpt>
      <trkpt lat="43.47106" lon="2.32218">
        <ele>708.15</ele>
        <time>2016-06-26T09:01:50Z</time>
      </trkpt>
      <trkpt lat="43.47085" lon="2.32222">
        <ele>714.4</ele>
        <time>2016-06-26T09:02:10Z</time>
      </trkpt>
      <trkpt lat="43.47068" lon="2.32228">
        <ele>711.99</ele>
        <time>2016-06-26T09:02:33Z</time>
      </trkpt>
      <trkpt lat="43.47049" lon="2.32224">
        <ele>714.4</ele>
        <time>2016-06-26T09:02:52Z</time>
      </trkpt>
      <trkpt lat="43.47032" lon="2.32213">
        <ele>721.61</ele>
        <time>2016-06-26T09:03:11Z</time>
      </trkpt>
      <trkpt lat="43.4702" lon="2.32201">
        <ele>718.72</ele>
        <time>2016-06-26T09:03:32Z</time>
      </trkpt>
      <trkpt lat="43.47017" lon="2.32193">
        <ele>720.65</ele>
        <time>2016-06-26T09:03:48Z</time>
      </trkpt>
      <trkpt lat="43.47014" lon="2.32197">
        <ele>727.37</ele>
        <time>2016-06-26T09:04:09Z</time>
      </trkpt>
      <trkpt lat="43.47015" lon="2.32198">
        <ele>729.3</ele>
        <time>2016-06-26T09:04:28Z</time>
      </trkpt>
      <trkpt lat="43.47014" lon="2.32202">
        <ele>733.14</ele>
        <time>2016-06-26T09:04:52Z</time>
      </trkpt>
      <trkpt lat="43.47015" lon="2.322">
        <ele>734.58</ele>
        <time>2016-06-26T09:05:15Z</time>
      </trkpt>
      <trkpt lat="43.47016" lon="2.322">
        <ele>735.07</ele>
        <time>2016-06-26T09:05:37Z</time>
      </trkpt>
      <trkpt lat="43.47013" lon="2.322">
        <ele>735.07</ele>
        <time>2016-06-26T09:06:05Z</time>
      </trkpt>
      <trkpt lat="43.47014" lon="2.32201">
        <ele>733.62</ele>
        <time>2016-06-26T09:06:22Z</time>
      </trkpt>
      <trkpt lat="43.47016" lon="2.32198">
        <ele>734.58</ele>
        <time>2016-06-26T09:06:50Z</time>
      </trkpt>
      <trkpt lat="43.47015" lon="2.32197">
        <ele>739.39</ele>
        <time>2016-06-26T09:07:21Z</time>
      </trkpt>
      <trkpt lat="43.47017" lon="2.322">
        <ele>745.64</ele>
        <time>2016-06-26T09:07:46Z</time>
      </trkpt>
      <trkpt lat="43.47022" lon="2.32197">
        <ele>748.52</ele>
        <time>2016-06-26T09:08:13Z</time>
      </trkpt>
      <trkpt lat="43.47021" lon="2.32195">
        <ele>748.04</ele>
        <time>2016-06-26T09:08:39Z</time>
      </trkpt>
      <trkpt lat="43.47016" lon="2.32199">
        <ele>748.04</ele>
        <time>2016-06-26T09:09:01Z</time>
      </trkpt>
      <trkpt lat="43.47015" lon="2.322">
        <ele>748.52</ele>
        <time>2016-06-26T09:09:28Z</time>
      </trkpt>
      <trkpt lat="43.47017" lon="2.32196">
        <ele>749</ele>
        <time>2016-06-26T09:09:59Z</time>
      </trkpt>
      <trkpt lat="43.47017" lon="2.32197">
        <ele>746.12</ele>
        <time>2016-06-26T09:10:24Z</time>
      </trkpt>
      <trkpt lat="43.47015" lon="2.32197">
        <ele>747.08</ele>
        <time>2016-06-26T09:10:46Z</time>
      </trkpt>
      <trkpt lat="43.47012" lon="2.32192">
        <ele>747.08</ele>
        <time>2016-06-26T09:11:05Z</time>
      </trkpt>
      <trkpt lat="43.46996" lon="2.32172">
        <ele>744.2</ele>
        <time>2016-06-26T09:11:31Z</time>
      </trkpt>
      <trkpt lat="43.46979" lon="2.3216">
        <ele>743.72</ele>
        <time>2016-06-26T09:11:51Z</time>
      </trkpt>
      <trkpt lat="43.46962" lon="2.32154">
        <ele>745.16</ele>
        <time>2016-06-26T09:12:11Z</time>
      </trkpt>
      <trkpt lat="43.46943" lon="2.32155">
        <ele>746.6</ele>
        <time>2016-06-26T09:12:33Z</time>
      </trkpt>
      <trkpt lat="43.46926" lon="2.32156">
        <ele>747.56</ele>
        <time>2016-06-26T09:12:52Z</time>
      </trkpt>
      <trkpt lat="43.46909" lon="2.3216">
        <ele>748.52</ele>
        <time>2016-06-26T09:13:11Z</time>
      </trkpt>
      <trkpt lat="43.46894" lon="2.32166">
        <ele>747.08</ele>
        <time>2016-06-26T09:13:29Z</time>
      </trkpt>
      <trkpt lat="43.4688" lon="2.32171">
        <ele>747.08</ele>
        <time>2016-06-26T09:13:46Z</time>
      </trkpt>
      <trkpt lat="43.46864" lon="2.32178">
        <ele>751.41</ele>
        <time>2016-06-26T09:14:07Z</time>
      </trkpt>
      <trkpt lat="43.46849" lon="2.32189">
        <ele>753.81</ele>
        <time>2016-06-26T09:14:27Z</time>
      </trkpt>
      <trkpt lat="43.46837" lon="2.32201">
        <ele>754.77</ele>
        <time>2016-06-26T09:14:44Z</time>
      </trkpt>
      <trkpt lat="43.46825" lon="2.32213">
        <ele>757.18</ele>
        <time>2016-06-26T09:15:01Z</time>
      </trkpt>
      <trkpt lat="43.46815" lon="2.32226">
        <ele>758.62</ele>
        <time>2016-06-26T09:15:16Z</time>
      </trkpt>
      <trkpt lat="43.46806" lon="2.32245">
        <ele>761.02</ele>
        <time>2016-06-26T09:15:33Z</time>
      </trkpt>
      <trkpt lat="43.46799" lon="2.32263">
        <ele>761.98</ele>
        <time>2016-06-26T09:15:49Z</time>
      </trkpt>
      <trkpt lat="43.46792" lon="2.32286">
        <ele>764.39</ele>
        <time>2016-06-26T09:16:08Z</time>
      </trkpt>
      <trkpt lat="43.4679" lon="2.32303">
        <ele>764.39</ele>
        <time>2016-06-26T09:16:22Z</time>
      </trkpt>
      <trkpt lat="43.46787" lon="2.32325">
        <ele>763.9</ele>
        <time>2016-06-26T09:16:39Z</time>
      </trkpt>
      <trkpt lat="43.46788" lon="2.32347">
        <ele>763.9</ele>
        <time>2016-06-26T09:16:55Z</time>
      </trkpt>
      <trkpt lat="43.46788" lon="2.32373">
        <ele>763.42</ele>
        <time>2016-06-26T09:17:13Z</time>
      </trkpt>
      <trkpt lat="43.46783" lon="2.32392">
        <ele>762.46</ele>
        <time>2016-06-26T09:17:29Z</time>
      </trkpt>
      <trkpt lat="43.46771" lon="2.3241">
        <ele>761.02</ele>
        <time>2016-06-26T09:17:47Z</time>
      </trkpt>
      <trkpt lat="43.46758" lon="2.32422">
        <ele>758.14</ele>
        <time>2016-06-26T09:18:02Z</time>
      </trkpt>
      <trkpt lat="43.46741" lon="2.32436">
        <ele>756.69</ele>
        <time>2016-06-26T09:18:22Z</time>
      </trkpt>
      <trkpt lat="43.46729" lon="2.32451">
        <ele>761.02</ele>
        <time>2016-06-26T09:18:39Z</time>
      </trkpt>
      <trkpt lat="43.46716" lon="2.32461">
        <ele>766.31</ele>
        <time>2016-06-26T09:18:54Z</time>
      </trkpt>
      <trkpt lat="43.46707" lon="2.32466">
        <ele>768.23</ele>
        <time>2016-06-26T09:19:04Z</time>
      </trkpt>
      <trkpt lat="43.46698" lon="2.32469">
        <ele>769.19</ele>
        <time>2016-06-26T09:19:14Z</time>
      </trkpt>
      <trkpt lat="43.46681" lon="2.32474">
        <ele>768.71</ele>
        <time>2016-06-26T09:19:31Z</time>
      </trkpt>
      <trkpt lat="43.46677" lon="2.32477">
        <ele>770.15</ele>
        <time>2016-06-26T09:19:42Z</time>
      </trkpt>
      <trkpt lat="43.4667" lon="2.32475">
        <ele>771.11</ele>
        <time>2016-06-26T09:19:55Z</time>
      </trkpt>
      <trkpt lat="43.46663" lon="2.32477">
        <ele>771.11</ele>
        <time>2016-06-26T09:20:04Z</time>
      </trkpt>
      <trkpt lat="43.4664" lon="2.3248">
        <ele>771.6</ele>
        <time>2016-06-26T09:20:28Z</time>
      </trkpt>
      <trkpt lat="43.4662" lon="2.3248">
        <ele>773.04</ele>
        <time>2016-06-26T09:20:49Z</time>
      </trkpt>
      <trkpt lat="43.46599" lon="2.32478">
        <ele>774.96</ele>
        <time>2016-06-26T09:21:10Z</time>
      </trkpt>
      <trkpt lat="43.46578" lon="2.32475">
        <ele>776.4</ele>
        <time>2016-06-26T09:21:31Z</time>
      </trkpt>
      <trkpt lat="43.46558" lon="2.32474">
        <ele>777.84</ele>
        <time>2016-06-26T09:21:53Z</time>
      </trkpt>
      <trkpt lat="43.46549" lon="2.32479">
        <ele>781.69</ele>
        <time>2016-06-26T09:22:12Z</time>
      </trkpt>
      <trkpt lat="43.46548" lon="2.32484">
        <ele>783.13</ele>
        <time>2016-06-26T09:22:29Z</time>
      </trkpt>
      <trkpt lat="43.46546" lon="2.32486">
        <ele>783.13</ele>
        <time>2016-06-26T09:22:44Z</time>
      </trkpt>
      <trkpt lat="43.46544" lon="2.32486">
        <ele>782.17</ele>
        <time>2016-06-26T09:23:01Z</time>
      </trkpt>
      <trkpt lat="43.46544" lon="2.32484">
        <ele>781.69</ele>
        <time>2016-06-26T09:23:26Z</time>
      </trkpt>
      <trkpt lat="43.46542" lon="2.32484">
        <ele>782.17</ele>
        <time>2016-06-26T09:23:57Z</time>
      </trkpt>
      <trkpt lat="43.4654" lon="2.32485">
        <ele>782.17</ele>
        <time>2016-06-26T09:24:19Z</time>
      </trkpt>
      <trkpt lat="43.46541" lon="2.32486">
        <ele>783.13</ele>
        <time>2016-06-26T09:24:45Z</time>
      </trkpt>
      <trkpt lat="43.46542" lon="2.32486">
        <ele>784.09</ele>
        <time>2016-06-26T09:25:00Z</time>
      </trkpt>
      <trkpt lat="43.4654" lon="2.32487">
        <ele>783.61</ele>
        <time>2016-06-26T09:25:14Z</time>
      </trkpt>
      <trkpt lat="43.46546" lon="2.3249">
        <ele>783.61</ele>
        <time>2016-06-26T09:25:30Z</time>
      </trkpt>
      <trkpt lat="43.46553" lon="2.325">
        <ele>782.65</ele>
        <time>2016-06-26T09:25:47Z</time>
      </trkpt>
      <trkpt lat="43.46559" lon="2.32512">
        <ele>782.17</ele>
        <time>2016-06-26T09:26:01Z</time>
      </trkpt>
      <trkpt lat="43.46562" lon="2.32533">
        <ele>779.77</ele>
        <time>2016-06-26T09:26:19Z</time>
      </trkpt>
      <trkpt lat="43.46565" lon="2.32555">
        <ele>777.36</ele>
        <time>2016-06-26T09:26:37Z</time>
      </trkpt>
      <trkpt lat="43.46566" lon="2.32559">
        <ele>776.88</ele>
        <time>2016-06-26T09:26:40Z</time>
      </trkpt>
      <trkpt lat="43.46568" lon="2.32589">
        <ele>774</ele>
        <time>2016-06-26T09:27:00Z</time>
      </trkpt>
      <trkpt lat="43.46571" lon="2.32618">
        <ele>770.15</ele>
        <time>2016-06-26T09:27:20Z</time>
      </trkpt>
      <trkpt lat="43.46574" lon="2.32641">
        <ele>768.71</ele>
        <time>2016-06-26T09:27:37Z</time>
      </trkpt>
      <trkpt lat="43.46578" lon="2.32671">
        <ele>768.23</ele>
        <time>2016-06-26T09:27:57Z</time>
      </trkpt>
      <trkpt lat="43.46582" lon="2.32702">
        <ele>764.87</ele>
        <time>2016-06-26T09:28:18Z</time>
      </trkpt>
      <trkpt lat="43.46583" lon="2.32735">
        <ele>760.06</ele>
        <time>2016-06-26T09:28:42Z</time>
      </trkpt>
      <trkpt lat="43.4658" lon="2.32785">
        <ele>765.83</ele>
        <time>2016-06-26T09:29:08Z</time>
      </trkpt>
      <trkpt lat="43.46574" lon="2.32817">
        <ele>760.06</ele>
        <time>2016-06-26T09:29:31Z</time>
      </trkpt>
      <trkpt lat="43.46566" lon="2.32851">
        <ele>756.21</ele>
        <time>2016-06-26T09:29:53Z</time>
      </trkpt>
      <trkpt lat="43.46554" lon="2.32884">
        <ele>752.85</ele>
        <time>2016-06-26T09:30:15Z</time>
      </trkpt>
      <trkpt lat="43.46544" lon="2.32909">
        <ele>749.49</ele>
        <time>2016-06-26T09:30:35Z</time>
      </trkpt>
      <trkpt lat="43.46534" lon="2.32921">
        <ele>752.37</ele>
        <time>2016-06-26T09:30:50Z</time>
      </trkpt>
      <trkpt lat="43.46524" lon="2.32943">
        <ele>754.77</ele>
        <time>2016-06-26T09:31:09Z</time>
      </trkpt>
      <trkpt lat="43.46514" lon="2.32971">
        <ele>753.33</ele>
        <time>2016-06-26T09:31:29Z</time>
      </trkpt>
      <trkpt lat="43.46504" lon="2.33002">
        <ele>749.49</ele>
        <time>2016-06-26T09:31:52Z</time>
      </trkpt>
      <trkpt lat="43.46496" lon="2.33031">
        <ele>745.64</ele>
        <time>2016-06-26T09:32:14Z</time>
      </trkpt>
      <trkpt lat="43.46485" lon="2.3306">
        <ele>742.76</ele>
        <time>2016-06-26T09:32:34Z</time>
      </trkpt>
      <trkpt lat="43.46478" lon="2.33097">
        <ele>742.76</ele>
        <time>2016-06-26T09:32:55Z</time>
      </trkpt>
      <trkpt lat="43.46475" lon="2.3313">
        <ele>741.79</ele>
        <time>2016-06-26T09:33:18Z</time>
      </trkpt>
      <trkpt lat="43.46473" lon="2.33157">
        <ele>742.76</ele>
        <time>2016-06-26T09:33:35Z</time>
      </trkpt>
      <trkpt lat="43.46481" lon="2.33192">
        <ele>742.28</ele>
        <time>2016-06-26T09:34:00Z</time>
      </trkpt>
      <trkpt lat="43.46493" lon="2.33214">
        <ele>739.39</ele>
        <time>2016-06-26T09:34:22Z</time>
      </trkpt>
      <trkpt lat="43.46506" lon="2.33241">
        <ele>734.1</ele>
        <time>2016-06-26T09:34:44Z</time>
      </trkpt>
      <trkpt lat="43.46518" lon="2.33276">
        <ele>733.62</ele>
        <time>2016-06-26T09:35:07Z</time>
      </trkpt>
      <trkpt lat="43.46521" lon="2.33309">
        <ele>730.26</ele>
        <time>2016-06-26T09:35:28Z</time>
      </trkpt>
      <trkpt lat="43.46514" lon="2.33343">
        <ele>726.89</ele>
        <time>2016-06-26T09:35:49Z</time>
      </trkpt>
      <trkpt lat="43.46501" lon="2.33371">
        <ele>724.49</ele>
        <time>2016-06-26T09:36:10Z</time>
      </trkpt>
      <trkpt lat="43.46493" lon="2.33397">
        <ele>720.65</ele>
        <time>2016-06-26T09:36:30Z</time>
      </trkpt>
      <trkpt lat="43.46491" lon="2.33404">
        <ele>720.65</ele>
        <time>2016-06-26T09:36:34Z</time>
      </trkpt>
      <trkpt lat="43.46474" lon="2.33427">
        <ele>722.57</ele>
        <time>2016-06-26T09:36:53Z</time>
      </trkpt>
      <trkpt lat="43.46448" lon="2.33437">
        <ele>719.68</ele>
        <time>2016-06-26T09:37:17Z</time>
      </trkpt>
      <trkpt lat="43.46421" lon="2.3344">
        <ele>723.53</ele>
        <time>2016-06-26T09:37:39Z</time>
      </trkpt>
      <trkpt lat="43.46408" lon="2.33459">
        <ele>724.49</ele>
        <time>2016-06-26T09:37:58Z</time>
      </trkpt>
      <trkpt lat="43.46406" lon="2.33466">
        <ele>724.49</ele>
        <time>2016-06-26T09:38:03Z</time>
      </trkpt>
      <trkpt lat="43.46407" lon="2.3349">
        <ele>726.89</ele>
        <time>2016-06-26T09:38:18Z</time>
      </trkpt>
      <trkpt lat="43.46409" lon="2.33511">
        <ele>730.74</ele>
        <time>2016-06-26T09:38:35Z</time>
      </trkpt>
      <trkpt lat="43.46413" lon="2.33524">
        <ele>729.78</ele>
        <time>2016-06-26T09:38:52Z</time>
      </trkpt>
      <trkpt lat="43.46419" lon="2.33547">
        <ele>729.78</ele>
        <time>2016-06-26T09:39:10Z</time>
      </trkpt>
      <trkpt lat="43.46432" lon="2.33574">
        <ele>730.26</ele>
        <time>2016-06-26T09:39:30Z</time>
      </trkpt>
      <trkpt lat="43.46444" lon="2.33597">
        <ele>729.3</ele>
        <time>2016-06-26T09:39:52Z</time>
      </trkpt>
      <trkpt lat="43.46458" lon="2.33616">
        <ele>724.49</ele>
        <time>2016-06-26T09:40:11Z</time>
      </trkpt>
      <trkpt lat="43.46477" lon="2.33635">
        <ele>721.61</ele>
        <time>2016-06-26T09:40:31Z</time>
      </trkpt>
      <trkpt lat="43.46492" lon="2.33655">
        <ele>724.01</ele>
        <time>2016-06-26T09:40:49Z</time>
      </trkpt>
      <trkpt lat="43.4649" lon="2.33653">
        <ele>724.01</ele>
        <time>2016-06-26T09:41:11Z</time>
      </trkpt>
      <trkpt lat="43.4649" lon="2.33655">
        <ele>726.41</ele>
        <time>2016-06-26T09:41:33Z</time>
      </trkpt>
      <trkpt lat="43.46493" lon="2.33655">
        <ele>727.86</ele>
        <time>2016-06-26T09:41:54Z</time>
      </trkpt>
      <trkpt lat="43.46499" lon="2.33664">
        <ele>727.37</ele>
        <time>2016-06-26T09:42:10Z</time>
      </trkpt>
      <trkpt lat="43.46516" lon="2.3368">
        <ele>724.97</ele>
        <time>2016-06-26T09:42:31Z</time>
      </trkpt>
      <trkpt lat="43.46532" lon="2.33698">
        <ele>721.61</ele>
        <time>2016-06-26T09:42:52Z</time>
      </trkpt>
      <trkpt lat="43.46545" lon="2.33711">
        <ele>719.2</ele>
        <time>2016-06-26T09:43:08Z</time>
      </trkpt>
      <trkpt lat="43.46559" lon="2.33726">
        <ele>718.24</ele>
        <time>2016-06-26T09:43:26Z</time>
      </trkpt>
      <trkpt lat="43.46573" lon="2.33742">
        <ele>715.84</ele>
        <time>2016-06-26T09:43:44Z</time>
      </trkpt>
      <trkpt lat="43.46589" lon="2.33762">
        <ele>717.28</ele>
        <time>2016-06-26T09:44:04Z</time>
      </trkpt>
      <trkpt lat="43.46605" lon="2.33781">
        <ele>714.4</ele>
        <time>2016-06-26T09:44:23Z</time>
      </trkpt>
      <trkpt lat="43.46617" lon="2.33805">
        <ele>712.95</ele>
        <time>2016-06-26T09:44:42Z</time>
      </trkpt>
      <trkpt lat="43.46617" lon="2.33834">
        <ele>711.51</ele>
        <time>2016-06-26T09:45:01Z</time>
      </trkpt>
      <trkpt lat="43.46614" lon="2.33856">
        <ele>707.67</ele>
        <time>2016-06-26T09:45:17Z</time>
      </trkpt>
      <trkpt lat="43.46613" lon="2.33889">
        <ele>708.15</ele>
        <time>2016-06-26T09:45:38Z</time>
      </trkpt>
      <trkpt lat="43.46603" lon="2.33915">
        <ele>705.75</ele>
        <time>2016-06-26T09:45:58Z</time>
      </trkpt>
      <trkpt lat="43.46598" lon="2.3393">
        <ele>706.23</ele>
        <time>2016-06-26T09:46:08Z</time>
      </trkpt>
      <trkpt lat="43.46584" lon="2.33958">
        <ele>706.71</ele>
        <time>2016-06-26T09:46:31Z</time>
      </trkpt>
      <trkpt lat="43.46583" lon="2.33965">
        <ele>706.71</ele>
        <time>2016-06-26T09:46:36Z</time>
      </trkpt>
      <trkpt lat="43.46587" lon="2.33992">
        <ele>703.34</ele>
        <time>2016-06-26T09:46:56Z</time>
      </trkpt>
      <trkpt lat="43.46596" lon="2.34022">
        <ele>701.42</ele>
        <time>2016-06-26T09:47:15Z</time>
      </trkpt>
      <trkpt lat="43.46595" lon="2.34055">
        <ele>699.5</ele>
        <time>2016-06-26T09:47:36Z</time>
      </trkpt>
      <trkpt lat="43.46595" lon="2.34057">
        <ele>699.5</ele>
        <time>2016-06-26T09:47:37Z</time>
      </trkpt>
      <trkpt lat="43.46583" lon="2.34087">
        <ele>697.57</ele>
        <time>2016-06-26T09:48:00Z</time>
      </trkpt>
      <trkpt lat="43.46571" lon="2.34119">
        <ele>695.65</ele>
        <time>2016-06-26T09:48:22Z</time>
      </trkpt>
      <trkpt lat="43.46561" lon="2.34143">
        <ele>694.21</ele>
        <time>2016-06-26T09:48:42Z</time>
      </trkpt>
      <trkpt lat="43.4655" lon="2.34166">
        <ele>692.29</ele>
        <time>2016-06-26T09:49:01Z</time>
      </trkpt>
      <trkpt lat="43.46534" lon="2.34195">
        <ele>689.88</ele>
        <time>2016-06-26T09:49:22Z</time>
      </trkpt>
      <trkpt lat="43.46523" lon="2.34223">
        <ele>688.44</ele>
        <time>2016-06-26T09:49:43Z</time>
      </trkpt>
      <trkpt lat="43.46517" lon="2.34244">
        <ele>687</ele>
        <time>2016-06-26T09:50:01Z</time>
      </trkpt>
      <trkpt lat="43.46512" lon="2.34268">
        <ele>685.56</ele>
        <time>2016-06-26T09:50:20Z</time>
      </trkpt>
      <trkpt lat="43.46509" lon="2.34266">
        <ele>683.63</ele>
        <time>2016-06-26T09:50:39Z</time>
      </trkpt>
      <trkpt lat="43.46508" lon="2.34271">
        <ele>684.12</ele>
        <time>2016-06-26T09:50:54Z</time>
      </trkpt>
      <trkpt lat="43.46497" lon="2.34278">
        <ele>684.6</ele>
        <time>2016-06-26T09:51:11Z</time>
      </trkpt>
      <trkpt lat="43.46488" lon="2.34274">
        <ele>684.6</ele>
        <time>2016-06-26T09:51:28Z</time>
      </trkpt>
      <trkpt lat="43.46481" lon="2.34256">
        <ele>684.12</ele>
        <time>2016-06-26T09:51:45Z</time>
      </trkpt>
      <trkpt lat="43.46472" lon="2.34235">
        <ele>684.12</ele>
        <time>2016-06-26T09:52:04Z</time>
      </trkpt>
      <trkpt lat="43.46462" lon="2.34206">
        <ele>685.08</ele>
        <time>2016-06-26T09:52:25Z</time>
      </trkpt>
      <trkpt lat="43.46452" lon="2.34181">
        <ele>684.6</ele>
        <time>2016-06-26T09:52:43Z</time>
      </trkpt>
      <trkpt lat="43.46443" lon="2.3416">
        <ele>684.12</ele>
        <time>2016-06-26T09:53:02Z</time>
      </trkpt>
      <trkpt lat="43.46431" lon="2.34134">
        <ele>683.15</ele>
        <time>2016-06-26T09:53:22Z</time>
      </trkpt>
      <trkpt lat="43.46417" lon="2.34109">
        <ele>683.63</ele>
        <time>2016-06-26T09:53:41Z</time>
      </trkpt>
      <trkpt lat="43.46407" lon="2.34078">
        <ele>681.23</ele>
        <time>2016-06-26T09:54:03Z</time>
      </trkpt>
      <trkpt lat="43.46406" lon="2.34047">
        <ele>676.91</ele>
        <time>2016-06-26T09:54:24Z</time>
      </trkpt>
      <trkpt lat="43.46402" lon="2.34019">
        <ele>676.91</ele>
        <time>2016-06-26T09:54:44Z</time>
      </trkpt>
      <trkpt lat="43.46397" lon="2.33982">
        <ele>680.27</ele>
        <time>2016-06-26T09:55:05Z</time>
      </trkpt>
      <trkpt lat="43.46386" lon="2.33954">
        <ele>683.15</ele>
        <time>2016-06-26T09:55:25Z</time>
      </trkpt>
      <trkpt lat="43.4637" lon="2.33934">
        <ele>684.6</ele>
        <time>2016-06-26T09:55:44Z</time>
      </trkpt>
      <trkpt lat="43.46354" lon="2.33912">
        <ele>683.63</ele>
        <time>2016-06-26T09:56:08Z</time>
      </trkpt>
      <trkpt lat="43.46341" lon="2.33896">
        <ele>677.39</ele>
        <time>2016-06-26T09:56:29Z</time>
      </trkpt>
      <trkpt lat="43.46324" lon="2.3388">
        <ele>675.94</ele>
        <time>2016-06-26T09:56:47Z</time>
      </trkpt>
      <trkpt lat="43.46309" lon="2.33865">
        <ele>668.73</ele>
        <time>2016-06-26T09:57:10Z</time>
      </trkpt>
      <trkpt lat="43.46287" lon="2.33842">
        <ele>670.18</ele>
        <time>2016-06-26T09:57:29Z</time>
      </trkpt>
      <trkpt lat="43.4627" lon="2.33819">
        <ele>668.25</ele>
        <time>2016-06-26T09:57:53Z</time>
      </trkpt>
      <trkpt lat="43.46257" lon="2.33792">
        <ele>667.77</ele>
        <time>2016-06-26T09:58:14Z</time>
      </trkpt>
      <trkpt lat="43.46247" lon="2.33767">
        <ele>668.73</ele>
        <time>2016-06-26T09:58:33Z</time>
      </trkpt>
      <trkpt lat="43.46235" lon="2.33741">
        <ele>668.73</ele>
        <time>2016-06-26T09:58:55Z</time>
      </trkpt>
      <trkpt lat="43.46224" lon="2.33712">
        <ele>665.37</ele>
        <time>2016-06-26T09:59:15Z</time>
      </trkpt>
      <trkpt lat="43.46212" lon="2.33684">
        <ele>663.93</ele>
        <time>2016-06-26T09:59:37Z</time>
      </trkpt>
      <trkpt lat="43.46211" lon="2.33666">
        <ele>662.01</ele>
        <time>2016-06-26T10:00:02Z</time>
      </trkpt>
      <trkpt lat="43.46205" lon="2.33653">
        <ele>665.37</ele>
        <time>2016-06-26T10:00:22Z</time>
      </trkpt>
      <trkpt lat="43.46185" lon="2.33632">
        <ele>671.14</ele>
        <time>2016-06-26T10:00:44Z</time>
      </trkpt>
      <trkpt lat="43.46167" lon="2.3362">
        <ele>672.58</ele>
        <time>2016-06-26T10:01:03Z</time>
      </trkpt>
      <trkpt lat="43.4615" lon="2.33591">
        <ele>673.54</ele>
        <time>2016-06-26T10:01:26Z</time>
      </trkpt>
      <trkpt lat="43.46137" lon="2.33564">
        <ele>677.39</ele>
        <time>2016-06-26T10:01:49Z</time>
      </trkpt>
      <trkpt lat="43.46121" lon="2.33541">
        <ele>679.31</ele>
        <time>2016-06-26T10:02:08Z</time>
      </trkpt>
      <trkpt lat="43.46102" lon="2.33523">
        <ele>679.31</ele>
        <time>2016-06-26T10:02:31Z</time>
      </trkpt>
      <trkpt lat="43.46072" lon="2.33505">
        <ele>681.23</ele>
        <time>2016-06-26T10:02:54Z</time>
      </trkpt>
      <trkpt lat="43.46052" lon="2.33514">
        <ele>680.27</ele>
        <time>2016-06-26T10:03:16Z</time>
      </trkpt>
      <trkpt lat="43.46034" lon="2.33528">
        <ele>675.46</ele>
        <time>2016-06-26T10:03:43Z</time>
      </trkpt>
      <trkpt lat="43.46041" lon="2.33562">
        <ele>683.15</ele>
        <time>2016-06-26T10:04:06Z</time>
      </trkpt>
      <trkpt lat="43.46055" lon="2.33599">
        <ele>685.56</ele>
        <time>2016-06-26T10:04:31Z</time>
      </trkpt>
      <trkpt lat="43.46063" lon="2.3363">
        <ele>678.35</ele>
        <time>2016-06-26T10:04:57Z</time>
      </trkpt>
      <trkpt lat="43.46071" lon="2.33655">
        <ele>675.94</ele>
        <time>2016-06-26T10:05:17Z</time>
      </trkpt>
      <trkpt lat="43.46077" lon="2.33696">
        <ele>674.98</ele>
        <time>2016-06-26T10:05:43Z</time>
      </trkpt>
      <trkpt lat="43.46081" lon="2.33724">
        <ele>676.91</ele>
        <time>2016-06-26T10:06:01Z</time>
      </trkpt>
      <trkpt lat="43.46086" lon="2.33752">
        <ele>679.79</ele>
        <time>2016-06-26T10:06:21Z</time>
      </trkpt>
      <trkpt lat="43.46094" lon="2.33788">
        <ele>680.27</ele>
        <time>2016-06-26T10:06:44Z</time>
      </trkpt>
      <trkpt lat="43.461" lon="2.33821">
        <ele>680.27</ele>
        <time>2016-06-26T10:07:05Z</time>
      </trkpt>
      <trkpt lat="43.46103" lon="2.33845">
        <ele>677.87</ele>
        <time>2016-06-26T10:07:27Z</time>
      </trkpt>
      <trkpt lat="43.46089" lon="2.33874">
        <ele>675.46</ele>
        <time>2016-06-26T10:07:51Z</time>
      </trkpt>
      <trkpt lat="43.46075" lon="2.33892">
        <ele>673.54</ele>
        <time>2016-06-26T10:08:07Z</time>
      </trkpt>
      <trkpt lat="43.46072" lon="2.33925">
        <ele>678.83</ele>
        <time>2016-06-26T10:08:28Z</time>
      </trkpt>
      <trkpt lat="43.46078" lon="2.33957">
        <ele>678.83</ele>
        <time>2016-06-26T10:08:48Z</time>
      </trkpt>
      <trkpt lat="43.46077" lon="2.33971">
        <ele>678.35</ele>
        <time>2016-06-26T10:09:07Z</time>
      </trkpt>
      <trkpt lat="43.46074" lon="2.34">
        <ele>676.91</ele>
        <time>2016-06-26T10:09:28Z</time>
      </trkpt>
      <trkpt lat="43.46069" lon="2.3403">
        <ele>675.94</ele>
        <time>2016-06-26T10:09:50Z</time>
      </trkpt>
      <trkpt lat="43.4607" lon="2.34085">
        <ele>676.42</ele>
        <time>2016-06-26T10:10:17Z</time>
      </trkpt>
      <trkpt lat="43.46067" lon="2.34121">
        <ele>677.87</ele>
        <time>2016-06-26T10:10:41Z</time>
      </trkpt>
      <trkpt lat="43.46061" lon="2.34153">
        <ele>678.35</ele>
        <time>2016-06-26T10:11:03Z</time>
      </trkpt>
      <trkpt lat="43.46068" lon="2.34184">
        <ele>679.79</ele>
        <time>2016-06-26T10:11:24Z</time>
      </trkpt>
      <trkpt lat="43.46078" lon="2.34216">
        <ele>680.75</ele>
        <time>2016-06-26T10:11:44Z</time>
      </trkpt>
      <trkpt lat="43.46076" lon="2.34245">
        <ele>680.75</ele>
        <time>2016-06-26T10:12:03Z</time>
      </trkpt>
      <trkpt lat="43.46074" lon="2.34282">
        <ele>680.75</ele>
        <time>2016-06-26T10:12:24Z</time>
      </trkpt>
      <trkpt lat="43.46079" lon="2.34307">
        <ele>680.27</ele>
        <time>2016-06-26T10:12:42Z</time>
      </trkpt>
      <trkpt lat="43.46076" lon="2.34331">
        <ele>678.83</ele>
        <time>2016-06-26T10:13:03Z</time>
      </trkpt>
      <trkpt lat="43.4606" lon="2.34348">
        <ele>678.35</ele>
        <time>2016-06-26T10:13:21Z</time>
      </trkpt>
      <trkpt lat="43.46037" lon="2.34355">
        <ele>680.27</ele>
        <time>2016-06-26T10:13:41Z</time>
      </trkpt>
      <trkpt lat="43.46021" lon="2.34364">
        <ele>684.12</ele>
        <time>2016-06-26T10:13:57Z</time>
      </trkpt>
      <trkpt lat="43.46002" lon="2.34371">
        <ele>684.12</ele>
        <time>2016-06-26T10:14:17Z</time>
      </trkpt>
      <trkpt lat="43.4599" lon="2.3438">
        <ele>684.12</ele>
        <time>2016-06-26T10:14:33Z</time>
      </trkpt>
      <trkpt lat="43.45996" lon="2.34406">
        <ele>685.08</ele>
        <time>2016-06-26T10:14:52Z</time>
      </trkpt>
      <trkpt lat="43.46013" lon="2.34429">
        <ele>687</ele>
        <time>2016-06-26T10:15:12Z</time>
      </trkpt>
      <trkpt lat="43.46026" lon="2.34453">
        <ele>684.6</ele>
        <time>2016-06-26T10:15:35Z</time>
      </trkpt>
      <trkpt lat="43.46038" lon="2.34482">
        <ele>684.6</ele>
        <time>2016-06-26T10:15:56Z</time>
      </trkpt>
      <trkpt lat="43.46052" lon="2.34494">
        <ele>682.67</ele>
        <time>2016-06-26T10:16:15Z</time>
      </trkpt>
      <trkpt lat="43.46072" lon="2.34503">
        <ele>683.63</ele>
        <time>2016-06-26T10:16:34Z</time>
      </trkpt>
      <trkpt lat="43.46098" lon="2.34515">
        <ele>684.6</ele>
        <time>2016-06-26T10:16:55Z</time>
      </trkpt>
      <trkpt lat="43.46119" lon="2.34526">
        <ele>684.6</ele>
        <time>2016-06-26T10:17:15Z</time>
      </trkpt>
      <trkpt lat="43.46128" lon="2.34531">
        <ele>685.08</ele>
        <time>2016-06-26T10:17:31Z</time>
      </trkpt>
      <trkpt lat="43.46147" lon="2.34541">
        <ele>684.6</ele>
        <time>2016-06-26T10:17:51Z</time>
      </trkpt>
      <trkpt lat="43.46167" lon="2.34551">
        <ele>685.08</ele>
        <time>2016-06-26T10:18:11Z</time>
      </trkpt>
      <trkpt lat="43.46188" lon="2.34561">
        <ele>684.12</ele>
        <time>2016-06-26T10:18:30Z</time>
      </trkpt>
      <trkpt lat="43.4621" lon="2.34573">
        <ele>684.6</ele>
        <time>2016-06-26T10:18:53Z</time>
      </trkpt>
      <trkpt lat="43.4622" lon="2.34562">
        <ele>683.63</ele>
        <time>2016-06-26T10:19:08Z</time>
      </trkpt>
      <trkpt lat="43.46239" lon="2.34543">
        <ele>680.27</ele>
        <time>2016-06-26T10:19:31Z</time>
      </trkpt>
      <trkpt lat="43.46263" lon="2.34523">
        <ele>680.75</ele>
        <time>2016-06-26T10:19:54Z</time>
      </trkpt>
      <trkpt lat="43.46279" lon="2.34511">
        <ele>675.94</ele>
        <time>2016-06-26T10:20:13Z</time>
      </trkpt>
      <trkpt lat="43.46304" lon="2.34508">
        <ele>676.91</ele>
        <time>2016-06-26T10:20:35Z</time>
      </trkpt>
      <trkpt lat="43.46315" lon="2.34513">
        <ele>675.94</ele>
        <time>2016-06-26T10:20:53Z</time>
      </trkpt>
      <trkpt lat="43.46329" lon="2.34524">
        <ele>676.91</ele>
        <time>2016-06-26T10:21:10Z</time>
      </trkpt>
      <trkpt lat="43.46329" lon="2.3453">
        <ele>679.79</ele>
        <time>2016-06-26T10:21:30Z</time>
      </trkpt>
      <trkpt lat="43.46337" lon="2.34534">
        <ele>681.71</ele>
        <time>2016-06-26T10:21:52Z</time>
      </trkpt>
      <trkpt lat="43.46352" lon="2.34542">
        <ele>683.15</ele>
        <time>2016-06-26T10:22:13Z</time>
      </trkpt>
      <trkpt lat="43.46365" lon="2.34551">
        <ele>685.08</ele>
        <time>2016-06-26T10:22:33Z</time>
      </trkpt>
      <trkpt lat="43.46364" lon="2.34551">
        <ele>687</ele>
        <time>2016-06-26T10:22:50Z</time>
      </trkpt>
      <trkpt lat="43.46362" lon="2.34552">
        <ele>687.96</ele>
        <time>2016-06-26T10:23:09Z</time>
      </trkpt>
      <trkpt lat="43.46364" lon="2.34554">
        <ele>686.52</ele>
        <time>2016-06-26T10:23:35Z</time>
      </trkpt>
      <trkpt lat="43.46365" lon="2.34554">
        <ele>685.08</ele>
        <time>2016-06-26T10:23:56Z</time>
      </trkpt>
      <trkpt lat="43.46365" lon="2.34554">
        <ele>682.19</ele>
        <time>2016-06-26T10:24:20Z</time>
      </trkpt>
      <trkpt lat="43.46364" lon="2.34549">
        <ele>682.67</ele>
        <time>2016-06-26T10:24:42Z</time>
      </trkpt>
      <trkpt lat="43.46362" lon="2.34552">
        <ele>682.67</ele>
        <time>2016-06-26T10:25:05Z</time>
      </trkpt>
      <trkpt lat="43.46363" lon="2.34553">
        <ele>684.12</ele>
        <time>2016-06-26T10:25:17Z</time>
      </trkpt>
      <trkpt lat="43.46361" lon="2.34552">
        <ele>685.56</ele>
        <time>2016-06-26T10:25:36Z</time>
      </trkpt>
      <trkpt lat="43.46358" lon="2.34549">
        <ele>687</ele>
        <time>2016-06-26T10:26:05Z</time>
      </trkpt>
      <trkpt lat="43.46362" lon="2.34552">
        <ele>685.56</ele>
        <time>2016-06-26T10:26:19Z</time>
      </trkpt>
      <trkpt lat="43.46363" lon="2.34554">
        <ele>685.56</ele>
        <time>2016-06-26T10:26:36Z</time>
      </trkpt>
      <trkpt lat="43.46363" lon="2.34554">
        <ele>685.08</ele>
        <time>2016-06-26T10:26:54Z</time>
      </trkpt>
      <trkpt lat="43.46364" lon="2.34552">
        <ele>688.92</ele>
        <time>2016-06-26T10:27:10Z</time>
      </trkpt>
      <trkpt lat="43.46365" lon="2.34552">
        <ele>688.92</ele>
        <time>2016-06-26T10:27:29Z</time>
      </trkpt>
      <trkpt lat="43.46366" lon="2.34554">
        <ele>686.04</ele>
        <time>2016-06-26T10:27:49Z</time>
      </trkpt>
      <trkpt lat="43.46365" lon="2.34556">
        <ele>687.48</ele>
        <time>2016-06-26T10:28:12Z</time>
      </trkpt>
      <trkpt lat="43.46366" lon="2.34554">
        <ele>687.48</ele>
        <time>2016-06-26T10:28:36Z</time>
      </trkpt>
      <trkpt lat="43.46367" lon="2.34555">
        <ele>686.52</ele>
        <time>2016-06-26T10:28:58Z</time>
      </trkpt>
      <trkpt lat="43.46368" lon="2.34551">
        <ele>687.48</ele>
        <time>2016-06-26T10:29:16Z</time>
      </trkpt>
      <trkpt lat="43.46365" lon="2.34553">
        <ele>689.4</ele>
        <time>2016-06-26T10:29:31Z</time>
      </trkpt>
      <trkpt lat="43.46358" lon="2.34555">
        <ele>691.33</ele>
        <time>2016-06-26T10:29:51Z</time>
      </trkpt>
      <trkpt lat="43.46359" lon="2.34557">
        <ele>690.36</ele>
        <time>2016-06-26T10:30:08Z</time>
      </trkpt>
      <trkpt lat="43.4636" lon="2.34554">
        <ele>688.44</ele>
        <time>2016-06-26T10:30:26Z</time>
      </trkpt>
      <trkpt lat="43.4636" lon="2.34553">
        <ele>686.04</ele>
        <time>2016-06-26T10:30:47Z</time>
      </trkpt>
      <trkpt lat="43.46361" lon="2.34553">
        <ele>686.52</ele>
        <time>2016-06-26T10:31:08Z</time>
      </trkpt>
      <trkpt lat="43.4636" lon="2.34551">
        <ele>687.48</ele>
        <time>2016-06-26T10:31:28Z</time>
      </trkpt>
      <trkpt lat="43.4636" lon="2.34552">
        <ele>688.44</ele>
        <time>2016-06-26T10:31:47Z</time>
      </trkpt>
      <trkpt lat="43.4636" lon="2.34551">
        <ele>689.88</ele>
        <time>2016-06-26T10:32:09Z</time>
      </trkpt>
      <trkpt lat="43.4636" lon="2.34549">
        <ele>691.33</ele>
        <time>2016-06-26T10:32:36Z</time>
      </trkpt>
      <trkpt lat="43.46362" lon="2.34548">
        <ele>691.81</ele>
        <time>2016-06-26T10:33:02Z</time>
      </trkpt>
      <trkpt lat="43.46364" lon="2.34549">
        <ele>692.29</ele>
        <time>2016-06-26T10:33:26Z</time>
      </trkpt>
      <trkpt lat="43.46366" lon="2.34551">
        <ele>690.84</ele>
        <time>2016-06-26T10:33:52Z</time>
      </trkpt>
      <trkpt lat="43.46364" lon="2.34552">
        <ele>687.96</ele>
        <time>2016-06-26T10:34:19Z</time>
      </trkpt>
      <trkpt lat="43.46367" lon="2.3455">
        <ele>688.44</ele>
        <time>2016-06-26T10:34:45Z</time>
      </trkpt>
      <trkpt lat="43.46366" lon="2.34551">
        <ele>687.48</ele>
        <time>2016-06-26T10:35:08Z</time>
      </trkpt>
      <trkpt lat="43.46364" lon="2.34552">
        <ele>687.48</ele>
        <time>2016-06-26T10:35:35Z</time>
      </trkpt>
      <trkpt lat="43.46367" lon="2.34552">
        <ele>687.48</ele>
        <time>2016-06-26T10:36:01Z</time>
      </trkpt>
      <trkpt lat="43.46362" lon="2.34551">
        <ele>688.92</ele>
        <time>2016-06-26T10:36:30Z</time>
      </trkpt>
      <trkpt lat="43.4636" lon="2.34551">
        <ele>688.92</ele>
        <time>2016-06-26T10:36:52Z</time>
      </trkpt>
      <trkpt lat="43.4636" lon="2.34547">
        <ele>688.92</ele>
        <time>2016-06-26T10:37:19Z</time>
      </trkpt>
      <trkpt lat="43.4636" lon="2.34548">
        <ele>687.48</ele>
        <time>2016-06-26T10:37:45Z</time>
      </trkpt>
      <trkpt lat="43.46363" lon="2.34555">
        <ele>687.48</ele>
        <time>2016-06-26T10:38:01Z</time>
      </trkpt>
      <trkpt lat="43.46365" lon="2.34556">
        <ele>687.96</ele>
        <time>2016-06-26T10:38:22Z</time>
      </trkpt>
      <trkpt lat="43.46364" lon="2.34555">
        <ele>687.96</ele>
        <time>2016-06-26T10:38:39Z</time>
      </trkpt>
      <trkpt lat="43.46363" lon="2.34551">
        <ele>687.48</ele>
        <time>2016-06-26T10:38:54Z</time>
      </trkpt>
      <trkpt lat="43.46367" lon="2.3455">
        <ele>687</ele>
        <time>2016-06-26T10:39:08Z</time>
      </trkpt>
      <trkpt lat="43.46362" lon="2.34553">
        <ele>685.08</ele>
        <time>2016-06-26T10:39:23Z</time>
      </trkpt>
      <trkpt lat="43.46366" lon="2.34551">
        <ele>683.63</ele>
        <time>2016-06-26T10:39:36Z</time>
      </trkpt>
      <trkpt lat="43.46366" lon="2.34553">
        <ele>683.63</ele>
        <time>2016-06-26T10:40:01Z</time>
      </trkpt>
      <trkpt lat="43.46366" lon="2.34552">
        <ele>682.67</ele>
        <time>2016-06-26T10:40:27Z</time>
      </trkpt>
      <trkpt lat="43.46366" lon="2.34554">
        <ele>683.15</ele>
        <time>2016-06-26T10:40:52Z</time>
      </trkpt>
      <trkpt lat="43.46364" lon="2.34557">
        <ele>687.48</ele>
        <time>2016-06-26T10:41:09Z</time>
      </trkpt>
      <trkpt lat="43.46362" lon="2.34554">
        <ele>686.04</ele>
        <time>2016-06-26T10:41:25Z</time>
      </trkpt>
      <trkpt lat="43.46365" lon="2.34552">
        <ele>686.04</ele>
        <time>2016-06-26T10:41:42Z</time>
      </trkpt>
      <trkpt lat="43.46369" lon="2.34551">
        <ele>687</ele>
        <time>2016-06-26T10:41:49Z</time>
      </trkpt>
      <trkpt lat="43.46367" lon="2.3455">
        <ele>685.56</ele>
        <time>2016-06-26T10:42:01Z</time>
      </trkpt>
      <trkpt lat="43.46367" lon="2.3455">
        <ele>685.56</ele>
        <time>2016-06-26T10:42:17Z</time>
      </trkpt>
      <trkpt lat="43.46366" lon="2.34551">
        <ele>684.6</ele>
        <time>2016-06-26T10:42:30Z</time>
      </trkpt>
      <trkpt lat="43.46361" lon="2.34556">
        <ele>685.08</ele>
        <time>2016-06-26T10:42:45Z</time>
      </trkpt>
      <trkpt lat="43.46362" lon="2.34558">
        <ele>687.48</ele>
        <time>2016-06-26T10:43:13Z</time>
      </trkpt>
      <trkpt lat="43.46361" lon="2.34555">
        <ele>687.48</ele>
        <time>2016-06-26T10:43:29Z</time>
      </trkpt>
      <trkpt lat="43.46363" lon="2.34553">
        <ele>687.48</ele>
        <time>2016-06-26T10:43:52Z</time>
      </trkpt>
      <trkpt lat="43.46363" lon="2.34554">
        <ele>689.88</ele>
        <time>2016-06-26T10:44:15Z</time>
      </trkpt>
      <trkpt lat="43.46368" lon="2.3455">
        <ele>691.81</ele>
        <time>2016-06-26T10:44:47Z</time>
      </trkpt>
      <trkpt lat="43.46365" lon="2.34552">
        <ele>691.33</ele>
        <time>2016-06-26T10:45:17Z</time>
      </trkpt>
      <trkpt lat="43.46364" lon="2.34549">
        <ele>690.84</ele>
        <time>2016-06-26T10:45:46Z</time>
      </trkpt>
      <trkpt lat="43.46363" lon="2.34552">
        <ele>688.44</ele>
        <time>2016-06-26T10:46:14Z</time>
      </trkpt>
      <trkpt lat="43.46366" lon="2.34548">
        <ele>689.88</ele>
        <time>2016-06-26T10:46:45Z</time>
      </trkpt>
      <trkpt lat="43.46363" lon="2.34549">
        <ele>691.81</ele>
        <time>2016-06-26T10:47:17Z</time>
      </trkpt>
      <trkpt lat="43.46362" lon="2.34549">
        <ele>690.36</ele>
        <time>2016-06-26T10:47:52Z</time>
      </trkpt>
      <trkpt lat="43.46364" lon="2.34548">
        <ele>689.88</ele>
        <time>2016-06-26T10:48:21Z</time>
      </trkpt>
      <trkpt lat="43.46367" lon="2.34549">
        <ele>691.81</ele>
        <time>2016-06-26T10:48:52Z</time>
      </trkpt>
      <trkpt lat="43.46366" lon="2.34552">
        <ele>691.81</ele>
        <time>2016-06-26T10:49:25Z</time>
      </trkpt>
      <trkpt lat="43.46364" lon="2.34551">
        <ele>687.96</ele>
        <time>2016-06-26T10:49:57Z</time>
      </trkpt>
      <trkpt lat="43.46366" lon="2.3455">
        <ele>687.48</ele>
        <time>2016-06-26T10:50:25Z</time>
      </trkpt>
      <trkpt lat="43.46363" lon="2.34553">
        <ele>685.56</ele>
        <time>2016-06-26T10:50:57Z</time>
      </trkpt>
      <trkpt lat="43.46366" lon="2.34554">
        <ele>683.63</ele>
        <time>2016-06-26T10:51:28Z</time>
      </trkpt>
      <trkpt lat="43.46365" lon="2.34554">
        <ele>683.15</ele>
        <time>2016-06-26T10:51:55Z</time>
      </trkpt>
      <trkpt lat="43.46361" lon="2.34553">
        <ele>680.27</ele>
        <time>2016-06-26T10:52:25Z</time>
      </trkpt>
      <trkpt lat="43.46367" lon="2.34554">
        <ele>681.71</ele>
        <time>2016-06-26T10:52:51Z</time>
      </trkpt>
      <trkpt lat="43.46366" lon="2.34552">
        <ele>684.6</ele>
        <time>2016-06-26T10:53:18Z</time>
      </trkpt>
      <trkpt lat="43.46366" lon="2.34554">
        <ele>682.67</ele>
        <time>2016-06-26T10:53:43Z</time>
      </trkpt>
      <trkpt lat="43.46366" lon="2.34552">
        <ele>692.29</ele>
        <time>2016-06-26T10:54:15Z</time>
      </trkpt>
      <trkpt lat="43.46365" lon="2.34549">
        <ele>692.29</ele>
        <time>2016-06-26T10:54:46Z</time>
      </trkpt>
      <trkpt lat="43.46365" lon="2.3455">
        <ele>691.81</ele>
        <time>2016-06-26T10:55:13Z</time>
      </trkpt>
      <trkpt lat="43.46368" lon="2.34553">
        <ele>690.36</ele>
        <time>2016-06-26T10:55:41Z</time>
      </trkpt>
      <trkpt lat="43.46363" lon="2.34549">
        <ele>694.21</ele>
        <time>2016-06-26T10:56:09Z</time>
      </trkpt>
      <trkpt lat="43.46365" lon="2.34548">
        <ele>692.29</ele>
        <time>2016-06-26T10:56:41Z</time>
      </trkpt>
      <trkpt lat="43.46365" lon="2.34548">
        <ele>692.29</ele>
        <time>2016-06-26T10:57:08Z</time>
      </trkpt>
      <trkpt lat="43.46368" lon="2.34549">
        <ele>692.77</ele>
        <time>2016-06-26T10:57:43Z</time>
      </trkpt>
      <trkpt lat="43.46366" lon="2.34552">
        <ele>691.33</ele>
        <time>2016-06-26T10:58:10Z</time>
      </trkpt>
      <trkpt lat="43.46364" lon="2.34552">
        <ele>692.77</ele>
        <time>2016-06-26T10:58:41Z</time>
      </trkpt>
      <trkpt lat="43.46363" lon="2.34548">
        <ele>691.81</ele>
        <time>2016-06-26T10:59:14Z</time>
      </trkpt>
      <trkpt lat="43.46365" lon="2.34551">
        <ele>691.81</ele>
        <time>2016-06-26T10:59:46Z</time>
      </trkpt>
      <trkpt lat="43.46364" lon="2.34551">
        <ele>688.44</ele>
        <time>2016-06-26T11:00:14Z</time>
      </trkpt>
      <trkpt lat="43.46365" lon="2.34555">
        <ele>689.88</ele>
        <time>2016-06-26T11:00:47Z</time>
      </trkpt>
      <trkpt lat="43.46365" lon="2.34555">
        <ele>687.48</ele>
        <time>2016-06-26T11:01:21Z</time>
      </trkpt>
      <trkpt lat="43.46365" lon="2.34554">
        <ele>685.56</ele>
        <time>2016-06-26T11:01:51Z</time>
      </trkpt>
      <trkpt lat="43.46364" lon="2.34556">
        <ele>686.04</ele>
        <time>2016-06-26T11:02:24Z</time>
      </trkpt>
      <trkpt lat="43.46366" lon="2.34557">
        <ele>685.08</ele>
        <time>2016-06-26T11:02:52Z</time>
      </trkpt>
      <trkpt lat="43.46364" lon="2.34555">
        <ele>686.52</ele>
        <time>2016-06-26T11:03:23Z</time>
      </trkpt>
      <trkpt lat="43.46365" lon="2.34553">
        <ele>686.04</ele>
        <time>2016-06-26T11:03:55Z</time>
      </trkpt>
      <trkpt lat="43.46361" lon="2.34549">
        <ele>686.04</ele>
        <time>2016-06-26T11:04:26Z</time>
      </trkpt>
      <trkpt lat="43.46362" lon="2.34555">
        <ele>684.6</ele>
        <time>2016-06-26T11:04:58Z</time>
      </trkpt>
      <trkpt lat="43.46361" lon="2.34556">
        <ele>682.67</ele>
        <time>2016-06-26T11:05:38Z</time>
      </trkpt>
      <trkpt lat="43.46362" lon="2.34553">
        <ele>683.63</ele>
        <time>2016-06-26T11:06:08Z</time>
      </trkpt>
      <trkpt lat="43.46361" lon="2.34556">
        <ele>683.15</ele>
        <time>2016-06-26T11:06:35Z</time>
      </trkpt>
      <trkpt lat="43.46362" lon="2.34554">
        <ele>683.63</ele>
        <time>2016-06-26T11:07:00Z</time>
      </trkpt>
      <trkpt lat="43.46365" lon="2.34551">
        <ele>685.56</ele>
        <time>2016-06-26T11:07:22Z</time>
      </trkpt>
      <trkpt lat="43.4636" lon="2.34551">
        <ele>685.08</ele>
        <time>2016-06-26T11:07:49Z</time>
      </trkpt>
      <trkpt lat="43.46361" lon="2.34554">
        <ele>683.63</ele>
        <time>2016-06-26T11:08:15Z</time>
      </trkpt>
      <trkpt lat="43.46358" lon="2.34551">
        <ele>685.08</ele>
        <time>2016-06-26T11:08:44Z</time>
      </trkpt>
      <trkpt lat="43.4636" lon="2.34552">
        <ele>687.96</ele>
        <time>2016-06-26T11:09:09Z</time>
      </trkpt>
      <trkpt lat="43.4636" lon="2.34559">
        <ele>681.23</ele>
        <time>2016-06-26T11:09:34Z</time>
      </trkpt>
      <trkpt lat="43.46358" lon="2.34559">
        <ele>679.31</ele>
        <time>2016-06-26T11:10:02Z</time>
      </trkpt>
      <trkpt lat="43.46364" lon="2.34555">
        <ele>683.15</ele>
        <time>2016-06-26T11:10:32Z</time>
      </trkpt>
      <trkpt lat="43.46363" lon="2.34552">
        <ele>685.56</ele>
        <time>2016-06-26T11:10:58Z</time>
      </trkpt>
      <trkpt lat="43.46364" lon="2.34549">
        <ele>688.44</ele>
        <time>2016-06-26T11:11:22Z</time>
      </trkpt>
      <trkpt lat="43.46364" lon="2.34551">
        <ele>688.44</ele>
        <time>2016-06-26T11:11:55Z</time>
      </trkpt>
      <trkpt lat="43.46363" lon="2.34549">
        <ele>690.36</ele>
        <time>2016-06-26T11:12:25Z</time>
      </trkpt>
      <trkpt lat="43.46364" lon="2.3455">
        <ele>689.4</ele>
        <time>2016-06-26T11:12:59Z</time>
      </trkpt>
      <trkpt lat="43.46363" lon="2.34551">
        <ele>685.08</ele>
        <time>2016-06-26T11:13:29Z</time>
      </trkpt>
      <trkpt lat="43.46365" lon="2.34552">
        <ele>689.88</ele>
        <time>2016-06-26T11:14:01Z</time>
      </trkpt>
      <trkpt lat="43.46366" lon="2.34555">
        <ele>686.04</ele>
        <time>2016-06-26T11:14:33Z</time>
      </trkpt>
      <trkpt lat="43.46362" lon="2.34554">
        <ele>684.6</ele>
        <time>2016-06-26T11:15:02Z</time>
      </trkpt>
      <trkpt lat="43.46361" lon="2.34556">
        <ele>684.12</ele>
        <time>2016-06-26T11:15:36Z</time>
      </trkpt>
      <trkpt lat="43.46363" lon="2.34554">
        <ele>686.52</ele>
        <time>2016-06-26T11:16:05Z</time>
      </trkpt>
      <trkpt lat="43.46366" lon="2.34557">
        <ele>686.04</ele>
        <time>2016-06-26T11:16:34Z</time>
      </trkpt>
      <trkpt lat="43.46369" lon="2.34554">
        <ele>687</ele>
        <time>2016-06-26T11:16:55Z</time>
      </trkpt>
      <trkpt lat="43.4638" lon="2.34546">
        <ele>687</ele>
        <time>2016-06-26T11:17:11Z</time>
      </trkpt>
      <trkpt lat="43.46383" lon="2.34543">
        <ele>685.08</ele>
        <time>2016-06-26T11:17:28Z</time>
      </trkpt>
      <trkpt lat="43.4638" lon="2.34543">
        <ele>680.75</ele>
        <time>2016-06-26T11:17:46Z</time>
      </trkpt>
      <trkpt lat="43.4638" lon="2.34536">
        <ele>680.27</ele>
        <time>2016-06-26T11:18:17Z</time>
      </trkpt>
      <trkpt lat="43.46377" lon="2.34542">
        <ele>680.27</ele>
        <time>2016-06-26T11:18:39Z</time>
      </trkpt>
      <trkpt lat="43.46381" lon="2.3455">
        <ele>682.19</ele>
        <time>2016-06-26T11:19:00Z</time>
      </trkpt>
      <trkpt lat="43.4637" lon="2.34557">
        <ele>685.08</ele>
        <time>2016-06-26T11:19:16Z</time>
      </trkpt>
      <trkpt lat="43.46356" lon="2.34563">
        <ele>687</ele>
        <time>2016-06-26T11:19:34Z</time>
      </trkpt>
      <trkpt lat="43.46357" lon="2.34561">
        <ele>686.52</ele>
        <time>2016-06-26T11:19:58Z</time>
      </trkpt>
      <trkpt lat="43.4636" lon="2.34559">
        <ele>685.56</ele>
        <time>2016-06-26T11:20:20Z</time>
      </trkpt>
      <trkpt lat="43.46364" lon="2.34557">
        <ele>690.84</ele>
        <time>2016-06-26T11:20:48Z</time>
      </trkpt>
      <trkpt lat="43.46366" lon="2.3456">
        <ele>693.25</ele>
        <time>2016-06-26T11:21:06Z</time>
      </trkpt>
      <trkpt lat="43.46365" lon="2.34559">
        <ele>693.25</ele>
        <time>2016-06-26T11:21:26Z</time>
      </trkpt>
      <trkpt lat="43.46364" lon="2.34557">
        <ele>693.73</ele>
        <time>2016-06-26T11:21:52Z</time>
      </trkpt>
      <trkpt lat="43.46364" lon="2.34556">
        <ele>691.81</ele>
        <time>2016-06-26T11:22:16Z</time>
      </trkpt>
      <trkpt lat="43.46362" lon="2.34554">
        <ele>692.29</ele>
        <time>2016-06-26T11:22:31Z</time>
      </trkpt>
      <trkpt lat="43.46362" lon="2.34554">
        <ele>690.36</ele>
        <time>2016-06-26T11:22:54Z</time>
      </trkpt>
      <trkpt lat="43.46364" lon="2.34555">
        <ele>695.17</ele>
        <time>2016-06-26T11:23:17Z</time>
      </trkpt>
      <trkpt lat="43.46365" lon="2.34555">
        <ele>694.69</ele>
        <time>2016-06-26T11:23:36Z</time>
      </trkpt>
      <trkpt lat="43.46366" lon="2.34556">
        <ele>694.21</ele>
        <time>2016-06-26T11:24:02Z</time>
      </trkpt>
      <trkpt lat="43.46368" lon="2.34557">
        <ele>696.13</ele>
        <time>2016-06-26T11:24:27Z</time>
      </trkpt>
      <trkpt lat="43.46366" lon="2.34556">
        <ele>696.13</ele>
        <time>2016-06-26T11:24:52Z</time>
      </trkpt>
      <trkpt lat="43.46365" lon="2.34556">
        <ele>692.77</ele>
        <time>2016-06-26T11:25:13Z</time>
      </trkpt>
      <trkpt lat="43.46366" lon="2.34554">
        <ele>694.69</ele>
        <time>2016-06-26T11:25:31Z</time>
      </trkpt>
      <trkpt lat="43.46364" lon="2.34554">
        <ele>692.77</ele>
        <time>2016-06-26T11:25:51Z</time>
      </trkpt>
      <trkpt lat="43.46366" lon="2.34556">
        <ele>690.84</ele>
        <time>2016-06-26T11:26:10Z</time>
      </trkpt>
      <trkpt lat="43.46365" lon="2.34555">
        <ele>690.84</ele>
        <time>2016-06-26T11:26:26Z</time>
      </trkpt>
      <trkpt lat="43.46364" lon="2.34554">
        <ele>690.36</ele>
        <time>2016-06-26T11:26:42Z</time>
      </trkpt>
      <trkpt lat="43.46364" lon="2.34554">
        <ele>693.73</ele>
        <time>2016-06-26T11:27:04Z</time>
      </trkpt>
      <trkpt lat="43.46363" lon="2.34554">
        <ele>693.25</ele>
        <time>2016-06-26T11:27:21Z</time>
      </trkpt>
      <trkpt lat="43.46366" lon="2.34556">
        <ele>692.29</ele>
        <time>2016-06-26T11:27:45Z</time>
      </trkpt>
      <trkpt lat="43.46367" lon="2.34555">
        <ele>691.33</ele>
        <time>2016-06-26T11:28:15Z</time>
      </trkpt>
      <trkpt lat="43.46365" lon="2.34553">
        <ele>694.21</ele>
        <time>2016-06-26T11:28:32Z</time>
      </trkpt>
      <trkpt lat="43.46364" lon="2.34551">
        <ele>694.69</ele>
        <time>2016-06-26T11:28:52Z</time>
      </trkpt>
      <trkpt lat="43.46364" lon="2.34553">
        <ele>694.21</ele>
        <time>2016-06-26T11:29:10Z</time>
      </trkpt>
      <trkpt lat="43.46362" lon="2.34554">
        <ele>689.88</ele>
        <time>2016-06-26T11:29:30Z</time>
      </trkpt>
      <trkpt lat="43.46363" lon="2.34555">
        <ele>691.33</ele>
        <time>2016-06-26T11:29:50Z</time>
      </trkpt>
      <trkpt lat="43.46363" lon="2.34552">
        <ele>691.33</ele>
        <time>2016-06-26T11:30:14Z</time>
      </trkpt>
      <trkpt lat="43.46365" lon="2.34557">
        <ele>690.84</ele>
        <time>2016-06-26T11:30:35Z</time>
      </trkpt>
      <trkpt lat="43.46363" lon="2.34553">
        <ele>691.81</ele>
        <time>2016-06-26T11:30:56Z</time>
      </trkpt>
      <trkpt lat="43.46362" lon="2.34552">
        <ele>690.84</ele>
        <time>2016-06-26T11:31:20Z</time>
      </trkpt>
      <trkpt lat="43.46363" lon="2.34552">
        <ele>690.84</ele>
        <time>2016-06-26T11:31:41Z</time>
      </trkpt>
      <trkpt lat="43.46364" lon="2.34554">
        <ele>689.4</ele>
        <time>2016-06-26T11:32:06Z</time>
      </trkpt>
      <trkpt lat="43.46365" lon="2.34553">
        <ele>688.92</ele>
        <time>2016-06-26T11:32:28Z</time>
      </trkpt>
      <trkpt lat="43.46363" lon="2.34552">
        <ele>691.33</ele>
        <time>2016-06-26T11:32:47Z</time>
      </trkpt>
      <trkpt lat="43.4636" lon="2.3455">
        <ele>689.4</ele>
        <time>2016-06-26T11:33:15Z</time>
      </trkpt>
      <trkpt lat="43.46363" lon="2.3455">
        <ele>691.33</ele>
        <time>2016-06-26T11:33:45Z</time>
      </trkpt>
      <trkpt lat="43.46367" lon="2.3455">
        <ele>693.25</ele>
        <time>2016-06-26T11:34:11Z</time>
      </trkpt>
      <trkpt lat="43.46365" lon="2.34549">
        <ele>691.33</ele>
        <time>2016-06-26T11:34:48Z</time>
      </trkpt>
      <trkpt lat="43.46367" lon="2.34552">
        <ele>688.44</ele>
        <time>2016-06-26T11:35:13Z</time>
      </trkpt>
      <trkpt lat="43.46367" lon="2.34552">
        <ele>688.92</ele>
        <time>2016-06-26T11:35:45Z</time>
      </trkpt>
      <trkpt lat="43.46365" lon="2.3455">
        <ele>689.88</ele>
        <time>2016-06-26T11:36:14Z</time>
      </trkpt>
      <trkpt lat="43.46367" lon="2.34551">
        <ele>689.4</ele>
        <time>2016-06-26T11:36:40Z</time>
      </trkpt>
      <trkpt lat="43.4637" lon="2.3455">
        <ele>688.92</ele>
        <time>2016-06-26T11:37:17Z</time>
      </trkpt>
      <trkpt lat="43.4637" lon="2.3455">
        <ele>689.88</ele>
        <time>2016-06-26T11:37:50Z</time>
      </trkpt>
      <trkpt lat="43.46369" lon="2.34551">
        <ele>688.92</ele>
        <time>2016-06-26T11:38:23Z</time>
      </trkpt>
      <trkpt lat="43.46366" lon="2.34551">
        <ele>689.4</ele>
        <time>2016-06-26T11:38:53Z</time>
      </trkpt>
      <trkpt lat="43.46369" lon="2.34551">
        <ele>689.4</ele>
        <time>2016-06-26T11:39:19Z</time>
      </trkpt>
      <trkpt lat="43.46368" lon="2.34553">
        <ele>688.92</ele>
        <time>2016-06-26T11:39:51Z</time>
      </trkpt>
      <trkpt lat="43.46369" lon="2.34553">
        <ele>689.88</ele>
        <time>2016-06-26T11:40:21Z</time>
      </trkpt>
      <trkpt lat="43.46369" lon="2.34554">
        <ele>691.33</ele>
        <time>2016-06-26T11:40:47Z</time>
      </trkpt>
      <trkpt lat="43.46368" lon="2.34553">
        <ele>691.81</ele>
        <time>2016-06-26T11:41:15Z</time>
      </trkpt>
      <trkpt lat="43.46369" lon="2.34554">
        <ele>691.81</ele>
        <time>2016-06-26T11:41:47Z</time>
      </trkpt>
      <trkpt lat="43.46372" lon="2.34554">
        <ele>692.77</ele>
        <time>2016-06-26T11:42:10Z</time>
      </trkpt>
      <trkpt lat="43.46371" lon="2.34554">
        <ele>693.73</ele>
        <time>2016-06-26T11:42:34Z</time>
      </trkpt>
      <trkpt lat="43.46365" lon="2.34553">
        <ele>692.29</ele>
        <time>2016-06-26T11:43:00Z</time>
      </trkpt>
      <trkpt lat="43.46371" lon="2.34556">
        <ele>691.81</ele>
        <time>2016-06-26T11:43:26Z</time>
      </trkpt>
      <trkpt lat="43.46368" lon="2.34557">
        <ele>689.88</ele>
        <time>2016-06-26T11:43:49Z</time>
      </trkpt>
      <trkpt lat="43.46367" lon="2.34556">
        <ele>689.88</ele>
        <time>2016-06-26T11:44:07Z</time>
      </trkpt>
      <trkpt lat="43.46365" lon="2.34556">
        <ele>689.4</ele>
        <time>2016-06-26T11:44:24Z</time>
      </trkpt>
      <trkpt lat="43.46366" lon="2.34555">
        <ele>690.36</ele>
        <time>2016-06-26T11:44:49Z</time>
      </trkpt>
      <trkpt lat="43.4637" lon="2.34556">
        <ele>689.88</ele>
        <time>2016-06-26T11:45:16Z</time>
      </trkpt>
      <trkpt lat="43.46367" lon="2.34553">
        <ele>688.92</ele>
        <time>2016-06-26T11:45:43Z</time>
      </trkpt>
      <trkpt lat="43.46365" lon="2.34557">
        <ele>687.48</ele>
        <time>2016-06-26T11:46:07Z</time>
      </trkpt>
      <trkpt lat="43.46365" lon="2.34554">
        <ele>684.6</ele>
        <time>2016-06-26T11:46:34Z</time>
      </trkpt>
      <trkpt lat="43.46363" lon="2.34554">
        <ele>685.56</ele>
        <time>2016-06-26T11:46:52Z</time>
      </trkpt>
      <trkpt lat="43.46368" lon="2.34553">
        <ele>685.56</ele>
        <time>2016-06-26T11:47:20Z</time>
      </trkpt>
      <trkpt lat="43.46367" lon="2.34556">
        <ele>686.52</ele>
        <time>2016-06-26T11:47:44Z</time>
      </trkpt>
      <trkpt lat="43.46369" lon="2.34556">
        <ele>687.48</ele>
        <time>2016-06-26T11:48:07Z</time>
      </trkpt>
      <trkpt lat="43.4637" lon="2.34555">
        <ele>689.4</ele>
        <time>2016-06-26T11:48:34Z</time>
      </trkpt>
      <trkpt lat="43.46369" lon="2.34554">
        <ele>687.96</ele>
        <time>2016-06-26T11:48:57Z</time>
      </trkpt>
      <trkpt lat="43.46371" lon="2.34553">
        <ele>688.92</ele>
        <time>2016-06-26T11:49:21Z</time>
      </trkpt>
      <trkpt lat="43.46373" lon="2.3455">
        <ele>688.44</ele>
        <time>2016-06-26T11:49:45Z</time>
      </trkpt>
      <trkpt lat="43.46368" lon="2.3455">
        <ele>687.48</ele>
        <time>2016-06-26T11:50:11Z</time>
      </trkpt>
      <trkpt lat="43.46376" lon="2.34538">
        <ele>687.96</ele>
        <time>2016-06-26T11:50:30Z</time>
      </trkpt>
      <trkpt lat="43.4639" lon="2.34526">
        <ele>686.52</ele>
        <time>2016-06-26T11:50:49Z</time>
      </trkpt>
      <trkpt lat="43.46401" lon="2.34512">
        <ele>685.56</ele>
        <time>2016-06-26T11:51:09Z</time>
      </trkpt>
      <trkpt lat="43.46401" lon="2.3451">
        <ele>685.56</ele>
        <time>2016-06-26T11:51:10Z</time>
      </trkpt>
      <trkpt lat="43.46417" lon="2.34494">
        <ele>684.6</ele>
        <time>2016-06-26T11:51:29Z</time>
      </trkpt>
      <trkpt lat="43.4643" lon="2.3449">
        <ele>685.08</ele>
        <time>2016-06-26T11:51:46Z</time>
      </trkpt>
      <trkpt lat="43.46446" lon="2.34487">
        <ele>684.12</ele>
        <time>2016-06-26T11:52:05Z</time>
      </trkpt>
      <trkpt lat="43.46467" lon="2.34485">
        <ele>684.6</ele>
        <time>2016-06-26T11:52:25Z</time>
      </trkpt>
      <trkpt lat="43.46483" lon="2.34481">
        <ele>685.08</ele>
        <time>2016-06-26T11:52:42Z</time>
      </trkpt>
      <trkpt lat="43.46494" lon="2.34491">
        <ele>684.6</ele>
        <time>2016-06-26T11:52:58Z</time>
      </trkpt>
      <trkpt lat="43.46492" lon="2.34493">
        <ele>685.08</ele>
        <time>2016-06-26T11:53:26Z</time>
      </trkpt>
      <trkpt lat="43.46502" lon="2.34492">
        <ele>684.6</ele>
        <time>2016-06-26T11:53:46Z</time>
      </trkpt>
      <trkpt lat="43.46504" lon="2.3447">
        <ele>681.71</ele>
        <time>2016-06-26T11:54:03Z</time>
      </trkpt>
      <trkpt lat="43.46509" lon="2.34445">
        <ele>680.27</ele>
        <time>2016-06-26T11:54:22Z</time>
      </trkpt>
      <trkpt lat="43.46514" lon="2.34419">
        <ele>679.79</ele>
        <time>2016-06-26T11:54:43Z</time>
      </trkpt>
      <trkpt lat="43.46518" lon="2.34394">
        <ele>681.71</ele>
        <time>2016-06-26T11:55:03Z</time>
      </trkpt>
      <trkpt lat="43.46522" lon="2.34373">
        <ele>683.15</ele>
        <time>2016-06-26T11:55:21Z</time>
      </trkpt>
      <trkpt lat="43.46518" lon="2.34348">
        <ele>682.19</ele>
        <time>2016-06-26T11:55:41Z</time>
      </trkpt>
      <trkpt lat="43.4651" lon="2.34323">
        <ele>679.79</ele>
        <time>2016-06-26T11:56:03Z</time>
      </trkpt>
      <trkpt lat="43.46515" lon="2.34293">
        <ele>678.35</ele>
        <time>2016-06-26T11:56:25Z</time>
      </trkpt>
      <trkpt lat="43.46514" lon="2.34266">
        <ele>682.19</ele>
        <time>2016-06-26T11:56:44Z</time>
      </trkpt>
      <trkpt lat="43.46521" lon="2.34234">
        <ele>684.6</ele>
        <time>2016-06-26T11:57:06Z</time>
      </trkpt>
      <trkpt lat="43.46532" lon="2.34209">
        <ele>685.08</ele>
        <time>2016-06-26T11:57:27Z</time>
      </trkpt>
      <trkpt lat="43.46548" lon="2.34183">
        <ele>684.12</ele>
        <time>2016-06-26T11:57:50Z</time>
      </trkpt>
      <trkpt lat="43.46557" lon="2.34159">
        <ele>688.92</ele>
        <time>2016-06-26T11:58:11Z</time>
      </trkpt>
      <trkpt lat="43.46568" lon="2.34137">
        <ele>687.96</ele>
        <time>2016-06-26T11:58:31Z</time>
      </trkpt>
      <trkpt lat="43.46579" lon="2.34112">
        <ele>690.84</ele>
        <time>2016-06-26T11:58:54Z</time>
      </trkpt>
      <trkpt lat="43.4659" lon="2.34088">
        <ele>690.84</ele>
        <time>2016-06-26T11:59:16Z</time>
      </trkpt>
      <trkpt lat="43.46598" lon="2.34062">
        <ele>694.69</ele>
        <time>2016-06-26T11:59:37Z</time>
      </trkpt>
      <trkpt lat="43.46604" lon="2.34033">
        <ele>695.17</ele>
        <time>2016-06-26T11:59:57Z</time>
      </trkpt>
      <trkpt lat="43.46599" lon="2.34011">
        <ele>697.57</ele>
        <time>2016-06-26T12:00:15Z</time>
      </trkpt>
      <trkpt lat="43.4659" lon="2.33992">
        <ele>700.94</ele>
        <time>2016-06-26T12:00:32Z</time>
      </trkpt>
      <trkpt lat="43.46586" lon="2.33971">
        <ele>703.34</ele>
        <time>2016-06-26T12:00:49Z</time>
      </trkpt>
      <trkpt lat="43.46591" lon="2.33947">
        <ele>706.71</ele>
        <time>2016-06-26T12:01:12Z</time>
      </trkpt>
      <trkpt lat="43.46602" lon="2.33924">
        <ele>711.99</ele>
        <time>2016-06-26T12:01:32Z</time>
      </trkpt>
      <trkpt lat="43.46616" lon="2.33904">
        <ele>713.92</ele>
        <time>2016-06-26T12:01:53Z</time>
      </trkpt>
      <trkpt lat="43.46622" lon="2.33889">
        <ele>715.84</ele>
        <time>2016-06-26T12:02:12Z</time>
      </trkpt>
      <trkpt lat="43.46645" lon="2.33905">
        <ele>716.32</ele>
        <time>2016-06-26T12:02:37Z</time>
      </trkpt>
      <trkpt lat="43.46655" lon="2.33931">
        <ele>716.32</ele>
        <time>2016-06-26T12:02:58Z</time>
      </trkpt>
      <trkpt lat="43.46662" lon="2.33962">
        <ele>714.4</ele>
        <time>2016-06-26T12:03:22Z</time>
      </trkpt>
      <trkpt lat="43.46675" lon="2.33997">
        <ele>714.4</ele>
        <time>2016-06-26T12:03:48Z</time>
      </trkpt>
      <trkpt lat="43.46696" lon="2.34025">
        <ele>713.92</ele>
        <time>2016-06-26T12:04:10Z</time>
      </trkpt>
      <trkpt lat="43.46709" lon="2.34045">
        <ele>713.44</ele>
        <time>2016-06-26T12:04:30Z</time>
      </trkpt>
      <trkpt lat="43.4671" lon="2.34049">
        <ele>712.95</ele>
        <time>2016-06-26T12:04:32Z</time>
      </trkpt>
      <trkpt lat="43.46727" lon="2.34062">
        <ele>711.03</ele>
        <time>2016-06-26T12:04:51Z</time>
      </trkpt>
      <trkpt lat="43.4675" lon="2.34062">
        <ele>716.32</ele>
        <time>2016-06-26T12:05:13Z</time>
      </trkpt>
      <trkpt lat="43.46769" lon="2.34066">
        <ele>716.32</ele>
        <time>2016-06-26T12:05:34Z</time>
      </trkpt>
      <trkpt lat="43.46783" lon="2.34086">
        <ele>716.8</ele>
        <time>2016-06-26T12:05:50Z</time>
      </trkpt>
      <trkpt lat="43.46788" lon="2.34109">
        <ele>717.76</ele>
        <time>2016-06-26T12:06:10Z</time>
      </trkpt>
      <trkpt lat="43.46791" lon="2.34138">
        <ele>719.2</ele>
        <time>2016-06-26T12:06:32Z</time>
      </trkpt>
      <trkpt lat="43.46801" lon="2.34153">
        <ele>716.8</ele>
        <time>2016-06-26T12:06:51Z</time>
      </trkpt>
      <trkpt lat="43.4681" lon="2.34163">
        <ele>723.05</ele>
        <time>2016-06-26T12:07:10Z</time>
      </trkpt>
      <trkpt lat="43.46812" lon="2.34167">
        <ele>729.3</ele>
        <time>2016-06-26T12:07:34Z</time>
      </trkpt>
      <trkpt lat="43.46812" lon="2.34171">
        <ele>732.18</ele>
        <time>2016-06-26T12:07:52Z</time>
      </trkpt>
      <trkpt lat="43.46807" lon="2.34169">
        <ele>729.3</ele>
        <time>2016-06-26T12:08:13Z</time>
      </trkpt>
      <trkpt lat="43.46801" lon="2.3417">
        <ele>730.74</ele>
        <time>2016-06-26T12:08:38Z</time>
      </trkpt>
      <trkpt lat="43.46808" lon="2.34171">
        <ele>730.26</ele>
        <time>2016-06-26T12:09:03Z</time>
      </trkpt>
      <trkpt lat="43.46812" lon="2.34176">
        <ele>730.26</ele>
        <time>2016-06-26T12:09:20Z</time>
      </trkpt>
      <trkpt lat="43.46813" lon="2.34177">
        <ele>731.7</ele>
        <time>2016-06-26T12:09:43Z</time>
      </trkpt>
      <trkpt lat="43.46817" lon="2.34193">
        <ele>731.7</ele>
        <time>2016-06-26T12:10:06Z</time>
      </trkpt>
      <trkpt lat="43.46826" lon="2.34207">
        <ele>731.22</ele>
        <time>2016-06-26T12:10:24Z</time>
      </trkpt>
      <trkpt lat="43.46835" lon="2.3423">
        <ele>732.18</ele>
        <time>2016-06-26T12:10:44Z</time>
      </trkpt>
      <trkpt lat="43.46847" lon="2.34253">
        <ele>732.18</ele>
        <time>2016-06-26T12:11:04Z</time>
      </trkpt>
      <trkpt lat="43.46859" lon="2.34279">
        <ele>731.22</ele>
        <time>2016-06-26T12:11:24Z</time>
      </trkpt>
      <trkpt lat="43.46871" lon="2.34294">
        <ele>728.34</ele>
        <time>2016-06-26T12:11:43Z</time>
      </trkpt>
      <trkpt lat="43.46872" lon="2.34294">
        <ele>725.93</ele>
        <time>2016-06-26T12:12:05Z</time>
      </trkpt>
      <trkpt lat="43.46873" lon="2.34294">
        <ele>724.97</ele>
        <time>2016-06-26T12:12:27Z</time>
      </trkpt>
      <trkpt lat="43.46873" lon="2.3429">
        <ele>724.97</ele>
        <time>2016-06-26T12:12:55Z</time>
      </trkpt>
      <trkpt lat="43.46881" lon="2.34307">
        <ele>727.86</ele>
        <time>2016-06-26T12:13:18Z</time>
      </trkpt>
      <trkpt lat="43.46894" lon="2.34327">
        <ele>728.34</ele>
        <time>2016-06-26T12:13:42Z</time>
      </trkpt>
      <trkpt lat="43.46907" lon="2.34355">
        <ele>725.45</ele>
        <time>2016-06-26T12:14:08Z</time>
      </trkpt>
      <trkpt lat="43.4693" lon="2.34381">
        <ele>723.05</ele>
        <time>2016-06-26T12:14:35Z</time>
      </trkpt>
      <trkpt lat="43.46946" lon="2.34407">
        <ele>721.13</ele>
        <time>2016-06-26T12:15:00Z</time>
      </trkpt>
      <trkpt lat="43.46973" lon="2.34422">
        <ele>723.05</ele>
        <time>2016-06-26T12:15:27Z</time>
      </trkpt>
      <trkpt lat="43.46996" lon="2.34431">
        <ele>721.13</ele>
        <time>2016-06-26T12:15:53Z</time>
      </trkpt>
      <trkpt lat="43.4702" lon="2.34435">
        <ele>723.05</ele>
        <time>2016-06-26T12:16:19Z</time>
      </trkpt>
      <trkpt lat="43.47049" lon="2.3444">
        <ele>723.53</ele>
        <time>2016-06-26T12:16:41Z</time>
      </trkpt>
      <trkpt lat="43.47079" lon="2.34451">
        <ele>725.93</ele>
        <time>2016-06-26T12:17:06Z</time>
      </trkpt>
      <trkpt lat="43.47101" lon="2.34452">
        <ele>726.41</ele>
        <time>2016-06-26T12:17:29Z</time>
      </trkpt>
      <trkpt lat="43.4712" lon="2.34457">
        <ele>724.97</ele>
        <time>2016-06-26T12:17:52Z</time>
      </trkpt>
      <trkpt lat="43.47143" lon="2.34466">
        <ele>720.65</ele>
        <time>2016-06-26T12:18:16Z</time>
      </trkpt>
      <trkpt lat="43.47171" lon="2.34472">
        <ele>718.24</ele>
        <time>2016-06-26T12:18:41Z</time>
      </trkpt>
      <trkpt lat="43.47193" lon="2.34464">
        <ele>716.8</ele>
        <time>2016-06-26T12:19:04Z</time>
      </trkpt>
      <trkpt lat="43.47193" lon="2.3446">
        <ele>712.47</ele>
        <time>2016-06-26T12:19:21Z</time>
      </trkpt>
      <trkpt lat="43.47218" lon="2.3445">
        <ele>712.95</ele>
        <time>2016-06-26T12:19:45Z</time>
      </trkpt>
      <trkpt lat="43.47237" lon="2.34443">
        <ele>710.55</ele>
        <time>2016-06-26T12:20:08Z</time>
      </trkpt>
      <trkpt lat="43.47264" lon="2.34445">
        <ele>705.75</ele>
        <time>2016-06-26T12:20:35Z</time>
      </trkpt>
      <trkpt lat="43.4728" lon="2.34441">
        <ele>698.53</ele>
        <time>2016-06-26T12:20:57Z</time>
      </trkpt>
      <trkpt lat="43.47313" lon="2.34431">
        <ele>699.5</ele>
        <time>2016-06-26T12:21:20Z</time>
      </trkpt>
      <trkpt lat="43.47331" lon="2.34427">
        <ele>699.5</ele>
        <time>2016-06-26T12:21:43Z</time>
      </trkpt>
      <trkpt lat="43.47361" lon="2.34429">
        <ele>699.98</ele>
        <time>2016-06-26T12:22:09Z</time>
      </trkpt>
      <trkpt lat="43.47387" lon="2.34432">
        <ele>698.53</ele>
        <time>2016-06-26T12:22:32Z</time>
      </trkpt>
      <trkpt lat="43.47412" lon="2.34444">
        <ele>696.13</ele>
        <time>2016-06-26T12:23:01Z</time>
      </trkpt>
      <trkpt lat="43.47443" lon="2.34445">
        <ele>691.33</ele>
        <time>2016-06-26T12:23:25Z</time>
      </trkpt>
      <trkpt lat="43.47456" lon="2.34441">
        <ele>688.92</ele>
        <time>2016-06-26T12:23:48Z</time>
      </trkpt>
      <trkpt lat="43.47482" lon="2.34434">
        <ele>691.81</ele>
        <time>2016-06-26T12:24:12Z</time>
      </trkpt>
      <trkpt lat="43.47509" lon="2.34436">
        <ele>693.25</ele>
        <time>2016-06-26T12:24:34Z</time>
      </trkpt>
      <trkpt lat="43.47527" lon="2.34455">
        <ele>692.77</ele>
        <time>2016-06-26T12:24:55Z</time>
      </trkpt>
      <trkpt lat="43.47553" lon="2.34444">
        <ele>690.36</ele>
        <time>2016-06-26T12:25:21Z</time>
      </trkpt>
      <trkpt lat="43.47569" lon="2.34414">
        <ele>685.08</ele>
        <time>2016-06-26T12:25:45Z</time>
      </trkpt>
      <trkpt lat="43.47587" lon="2.34389">
        <ele>686.04</ele>
        <time>2016-06-26T12:26:07Z</time>
      </trkpt>
      <trkpt lat="43.47611" lon="2.34379">
        <ele>683.15</ele>
        <time>2016-06-26T12:26:31Z</time>
      </trkpt>
      <trkpt lat="43.47627" lon="2.34382">
        <ele>681.71</ele>
        <time>2016-06-26T12:26:54Z</time>
      </trkpt>
      <trkpt lat="43.47639" lon="2.34407">
        <ele>678.83</ele>
        <time>2016-06-26T12:27:17Z</time>
      </trkpt>
      <trkpt lat="43.4765" lon="2.34443">
        <ele>682.67</ele>
        <time>2016-06-26T12:27:43Z</time>
      </trkpt>
      <trkpt lat="43.47651" lon="2.34472">
        <ele>684.12</ele>
        <time>2016-06-26T12:28:04Z</time>
      </trkpt>
      <trkpt lat="43.47655" lon="2.34499">
        <ele>683.15</ele>
        <time>2016-06-26T12:28:23Z</time>
      </trkpt>
      <trkpt lat="43.47656" lon="2.34539">
        <ele>680.27</ele>
        <time>2016-06-26T12:28:48Z</time>
      </trkpt>
      <trkpt lat="43.47661" lon="2.34579">
        <ele>677.39</ele>
        <time>2016-06-26T12:29:16Z</time>
      </trkpt>
      <trkpt lat="43.47669" lon="2.34607">
        <ele>676.42</ele>
        <time>2016-06-26T12:29:37Z</time>
      </trkpt>
      <trkpt lat="43.47687" lon="2.34626">
        <ele>674.5</ele>
        <time>2016-06-26T12:29:58Z</time>
      </trkpt>
      <trkpt lat="43.47708" lon="2.3465">
        <ele>674.5</ele>
        <time>2016-06-26T12:30:22Z</time>
      </trkpt>
      <trkpt lat="43.47725" lon="2.34675">
        <ele>672.58</ele>
        <time>2016-06-26T12:30:47Z</time>
      </trkpt>
      <trkpt lat="43.47749" lon="2.34705">
        <ele>678.35</ele>
        <time>2016-06-26T12:31:13Z</time>
      </trkpt>
      <trkpt lat="43.47754" lon="2.34738">
        <ele>678.83</ele>
        <time>2016-06-26T12:31:37Z</time>
      </trkpt>
      <trkpt lat="43.47745" lon="2.34763">
        <ele>672.58</ele>
        <time>2016-06-26T12:31:59Z</time>
      </trkpt>
      <trkpt lat="43.47736" lon="2.34793">
        <ele>667.77</ele>
        <time>2016-06-26T12:32:24Z</time>
      </trkpt>
      <trkpt lat="43.47728" lon="2.34835">
        <ele>667.77</ele>
        <time>2016-06-26T12:32:51Z</time>
      </trkpt>
      <trkpt lat="43.4773" lon="2.34868">
        <ele>666.81</ele>
        <time>2016-06-26T12:33:15Z</time>
      </trkpt>
      <trkpt lat="43.4775" lon="2.34868">
        <ele>667.77</ele>
        <time>2016-06-26T12:33:37Z</time>
      </trkpt>
      <trkpt lat="43.47774" lon="2.34865">
        <ele>662.49</ele>
        <time>2016-06-26T12:34:03Z</time>
      </trkpt>
      <trkpt lat="43.47806" lon="2.34869">
        <ele>665.85</ele>
        <time>2016-06-26T12:34:25Z</time>
      </trkpt>
      <trkpt lat="43.4782" lon="2.34889">
        <ele>662.97</ele>
        <time>2016-06-26T12:34:48Z</time>
      </trkpt>
      <trkpt lat="43.47834" lon="2.34914">
        <ele>666.33</ele>
        <time>2016-06-26T12:35:11Z</time>
      </trkpt>
      <trkpt lat="43.47851" lon="2.34941">
        <ele>668.25</ele>
        <time>2016-06-26T12:35:37Z</time>
      </trkpt>
      <trkpt lat="43.47853" lon="2.34946">
        <ele>667.29</ele>
        <time>2016-06-26T12:35:59Z</time>
      </trkpt>
      <trkpt lat="43.47853" lon="2.34943">
        <ele>665.37</ele>
        <time>2016-06-26T12:36:18Z</time>
      </trkpt>
      <trkpt lat="43.47851" lon="2.34941">
        <ele>665.37</ele>
        <time>2016-06-26T12:36:40Z</time>
      </trkpt>
      <trkpt lat="43.4785" lon="2.34949">
        <ele>666.81</ele>
        <time>2016-06-26T12:37:00Z</time>
      </trkpt>
      <trkpt lat="43.47857" lon="2.34981">
        <ele>668.25</ele>
        <time>2016-06-26T12:37:25Z</time>
      </trkpt>
      <trkpt lat="43.4786" lon="2.35004">
        <ele>666.81</ele>
        <time>2016-06-26T12:37:46Z</time>
      </trkpt>
      <trkpt lat="43.47861" lon="2.35029">
        <ele>664.41</ele>
        <time>2016-06-26T12:38:07Z</time>
      </trkpt>
      <trkpt lat="43.47848" lon="2.35062">
        <ele>663.93</ele>
        <time>2016-06-26T12:38:36Z</time>
      </trkpt>
      <trkpt lat="43.47836" lon="2.35092">
        <ele>662.97</ele>
        <time>2016-06-26T12:39:01Z</time>
      </trkpt>
      <trkpt lat="43.47817" lon="2.35129">
        <ele>658.16</ele>
        <time>2016-06-26T12:39:28Z</time>
      </trkpt>
      <trkpt lat="43.47807" lon="2.35164">
        <ele>654.8</ele>
        <time>2016-06-26T12:39:52Z</time>
      </trkpt>
      <trkpt lat="43.47797" lon="2.35193">
        <ele>655.76</ele>
        <time>2016-06-26T12:40:15Z</time>
      </trkpt>
      <trkpt lat="43.47777" lon="2.35219">
        <ele>655.76</ele>
        <time>2016-06-26T12:40:38Z</time>
      </trkpt>
      <trkpt lat="43.47768" lon="2.35254">
        <ele>654.31</ele>
        <time>2016-06-26T12:41:00Z</time>
      </trkpt>
      <trkpt lat="43.47782" lon="2.3528">
        <ele>654.31</ele>
        <time>2016-06-26T12:41:20Z</time>
      </trkpt>
      <trkpt lat="43.47798" lon="2.3531">
        <ele>654.8</ele>
        <time>2016-06-26T12:41:43Z</time>
      </trkpt>
      <trkpt lat="43.47805" lon="2.35341">
        <ele>652.87</ele>
        <time>2016-06-26T12:42:04Z</time>
      </trkpt>
      <trkpt lat="43.4781" lon="2.35377">
        <ele>650.95</ele>
        <time>2016-06-26T12:42:27Z</time>
      </trkpt>
      <trkpt lat="43.47807" lon="2.35408">
        <ele>649.51</ele>
        <time>2016-06-26T12:42:49Z</time>
      </trkpt>
      <trkpt lat="43.47802" lon="2.35438">
        <ele>652.39</ele>
        <time>2016-06-26T12:43:11Z</time>
      </trkpt>
      <trkpt lat="43.47783" lon="2.3546">
        <ele>649.51</ele>
        <time>2016-06-26T12:43:37Z</time>
      </trkpt>
      <trkpt lat="43.47766" lon="2.35481">
        <ele>645.18</ele>
        <time>2016-06-26T12:43:58Z</time>
      </trkpt>
      <trkpt lat="43.47749" lon="2.35522">
        <ele>642.3</ele>
        <time>2016-06-26T12:44:23Z</time>
      </trkpt>
      <trkpt lat="43.4774" lon="2.35556">
        <ele>642.78</ele>
        <time>2016-06-26T12:44:45Z</time>
      </trkpt>
      <trkpt lat="43.47747" lon="2.35591">
        <ele>645.66</ele>
        <time>2016-06-26T12:45:06Z</time>
      </trkpt>
      <trkpt lat="43.47759" lon="2.35627">
        <ele>646.14</ele>
        <time>2016-06-26T12:45:31Z</time>
      </trkpt>
      <trkpt lat="43.47767" lon="2.35662">
        <ele>645.18</ele>
        <time>2016-06-26T12:45:53Z</time>
      </trkpt>
      <trkpt lat="43.47771" lon="2.35704">
        <ele>645.66</ele>
        <time>2016-06-26T12:46:20Z</time>
      </trkpt>
      <trkpt lat="43.47769" lon="2.35741">
        <ele>647.59</ele>
        <time>2016-06-26T12:46:46Z</time>
      </trkpt>
      <trkpt lat="43.47757" lon="2.35775">
        <ele>646.62</ele>
        <time>2016-06-26T12:47:09Z</time>
      </trkpt>
      <trkpt lat="43.47747" lon="2.35805">
        <ele>646.14</ele>
        <time>2016-06-26T12:47:31Z</time>
      </trkpt>
      <trkpt lat="43.47749" lon="2.3584">
        <ele>644.22</ele>
        <time>2016-06-26T12:47:53Z</time>
      </trkpt>
      <trkpt lat="43.47743" lon="2.35875">
        <ele>647.1</ele>
        <time>2016-06-26T12:48:16Z</time>
      </trkpt>
      <trkpt lat="43.47732" lon="2.35909">
        <ele>649.51</ele>
        <time>2016-06-26T12:48:40Z</time>
      </trkpt>
      <trkpt lat="43.47731" lon="2.35915">
        <ele>646.62</ele>
        <time>2016-06-26T12:49:01Z</time>
      </trkpt>
      <trkpt lat="43.47732" lon="2.35915">
        <ele>646.14</ele>
        <time>2016-06-26T12:49:23Z</time>
      </trkpt>
      <trkpt lat="43.47729" lon="2.35912">
        <ele>646.62</ele>
        <time>2016-06-26T12:49:47Z</time>
      </trkpt>
      <trkpt lat="43.47737" lon="2.35916">
        <ele>648.55</ele>
        <time>2016-06-26T12:50:18Z</time>
      </trkpt>
      <trkpt lat="43.47736" lon="2.35914">
        <ele>651.91</ele>
        <time>2016-06-26T12:50:37Z</time>
      </trkpt>
      <trkpt lat="43.47736" lon="2.35916">
        <ele>654.8</ele>
        <time>2016-06-26T12:51:05Z</time>
      </trkpt>
      <trkpt lat="43.47739" lon="2.35923">
        <ele>654.31</ele>
        <time>2016-06-26T12:51:36Z</time>
      </trkpt>
      <trkpt lat="43.47743" lon="2.35927">
        <ele>655.28</ele>
        <time>2016-06-26T12:51:59Z</time>
      </trkpt>
      <trkpt lat="43.47754" lon="2.35928">
        <ele>654.8</ele>
        <time>2016-06-26T12:52:13Z</time>
      </trkpt>
      <trkpt lat="43.47763" lon="2.35906">
        <ele>654.8</ele>
        <time>2016-06-26T12:52:31Z</time>
      </trkpt>
      <trkpt lat="43.47764" lon="2.35881">
        <ele>651.43</ele>
        <time>2016-06-26T12:52:50Z</time>
      </trkpt>
      <trkpt lat="43.47767" lon="2.35848">
        <ele>647.1</ele>
        <time>2016-06-26T12:53:15Z</time>
      </trkpt>
      <trkpt lat="43.47773" lon="2.35815">
        <ele>645.18</ele>
        <time>2016-06-26T12:53:36Z</time>
      </trkpt>
      <trkpt lat="43.47784" lon="2.35783">
        <ele>641.34</ele>
        <time>2016-06-26T12:53:58Z</time>
      </trkpt>
      <trkpt lat="43.47794" lon="2.35759">
        <ele>638.45</ele>
        <time>2016-06-26T12:54:16Z</time>
      </trkpt>
      <trkpt lat="43.47797" lon="2.35734">
        <ele>636.53</ele>
        <time>2016-06-26T12:54:33Z</time>
      </trkpt>
      <trkpt lat="43.47794" lon="2.35699">
        <ele>632.2</ele>
        <time>2016-06-26T12:54:55Z</time>
      </trkpt>
      <trkpt lat="43.47789" lon="2.35675">
        <ele>625.96</ele>
        <time>2016-06-26T12:55:14Z</time>
      </trkpt>
      <trkpt lat="43.47791" lon="2.35642">
        <ele>623.07</ele>
        <time>2016-06-26T12:55:35Z</time>
      </trkpt>
      <trkpt lat="43.47784" lon="2.35612">
        <ele>618.26</ele>
        <time>2016-06-26T12:55:57Z</time>
      </trkpt>
      <trkpt lat="43.47774" lon="2.35579">
        <ele>615.86</ele>
        <time>2016-06-26T12:56:19Z</time>
      </trkpt>
      <trkpt lat="43.47783" lon="2.35553">
        <ele>615.86</ele>
        <time>2016-06-26T12:56:37Z</time>
      </trkpt>
      <trkpt lat="43.47801" lon="2.35529">
        <ele>619.23</ele>
        <time>2016-06-26T12:56:58Z</time>
      </trkpt>
      <trkpt lat="43.47819" lon="2.35509">
        <ele>618.75</ele>
        <time>2016-06-26T12:57:20Z</time>
      </trkpt>
      <trkpt lat="43.47838" lon="2.35484">
        <ele>618.75</ele>
        <time>2016-06-26T12:57:42Z</time>
      </trkpt>
      <trkpt lat="43.47855" lon="2.35472">
        <ele>616.34</ele>
        <time>2016-06-26T12:58:03Z</time>
      </trkpt>
      <trkpt lat="43.47885" lon="2.35454">
        <ele>616.34</ele>
        <time>2016-06-26T12:58:25Z</time>
      </trkpt>
      <trkpt lat="43.47906" lon="2.35431">
        <ele>613.46</ele>
        <time>2016-06-26T12:58:49Z</time>
      </trkpt>
      <trkpt lat="43.47923" lon="2.35409">
        <ele>611.06</ele>
        <time>2016-06-26T12:59:09Z</time>
      </trkpt>
      <trkpt lat="43.47938" lon="2.35399">
        <ele>611.06</ele>
        <time>2016-06-26T12:59:28Z</time>
      </trkpt>
      <trkpt lat="43.47942" lon="2.35375">
        <ele>608.17</ele>
        <time>2016-06-26T12:59:47Z</time>
      </trkpt>
      <trkpt lat="43.47942" lon="2.35337">
        <ele>602.88</ele>
        <time>2016-06-26T13:00:11Z</time>
      </trkpt>
      <trkpt lat="43.47945" lon="2.35298">
        <ele>599.04</ele>
        <time>2016-06-26T13:00:33Z</time>
      </trkpt>
      <trkpt lat="43.47938" lon="2.35264">
        <ele>593.75</ele>
        <time>2016-06-26T13:00:55Z</time>
      </trkpt>
      <trkpt lat="43.47925" lon="2.35247">
        <ele>590.87</ele>
        <time>2016-06-26T13:01:15Z</time>
      </trkpt>
      <trkpt lat="43.47913" lon="2.3523">
        <ele>593.75</ele>
        <time>2016-06-26T13:01:34Z</time>
      </trkpt>
      <trkpt lat="43.47917" lon="2.35213">
        <ele>599.04</ele>
        <time>2016-06-26T13:01:49Z</time>
      </trkpt>
      <trkpt lat="43.47929" lon="2.35198">
        <ele>597.12</ele>
        <time>2016-06-26T13:02:07Z</time>
      </trkpt>
      <trkpt lat="43.47941" lon="2.3517">
        <ele>595.67</ele>
        <time>2016-06-26T13:02:28Z</time>
      </trkpt>
      <trkpt lat="43.47949" lon="2.35147">
        <ele>591.83</ele>
        <time>2016-06-26T13:02:48Z</time>
      </trkpt>
      <trkpt lat="43.47967" lon="2.35129">
        <ele>595.67</ele>
        <time>2016-06-26T13:03:05Z</time>
      </trkpt>
      <trkpt lat="43.47986" lon="2.35108">
        <ele>594.23</ele>
        <time>2016-06-26T13:03:26Z</time>
      </trkpt>
      <trkpt lat="43.48006" lon="2.35087">
        <ele>594.23</ele>
        <time>2016-06-26T13:03:49Z</time>
      </trkpt>
      <trkpt lat="43.48011" lon="2.35077">
        <ele>591.83</ele>
        <time>2016-06-26T13:04:08Z</time>
      </trkpt>
      <trkpt lat="43.48017" lon="2.35082">
        <ele>590.39</ele>
        <time>2016-06-26T13:04:35Z</time>
      </trkpt>
      <trkpt lat="43.48038" lon="2.35071">
        <ele>591.35</ele>
        <time>2016-06-26T13:04:57Z</time>
      </trkpt>
      <trkpt lat="43.48057" lon="2.3506">
        <ele>586.54</ele>
        <time>2016-06-26T13:05:23Z</time>
      </trkpt>
      <trkpt lat="43.48073" lon="2.35059">
        <ele>584.14</ele>
        <time>2016-06-26T13:05:44Z</time>
      </trkpt>
      <trkpt lat="43.48091" lon="2.35056">
        <ele>582.22</ele>
        <time>2016-06-26T13:06:04Z</time>
      </trkpt>
      <trkpt lat="43.48106" lon="2.3505">
        <ele>579.33</ele>
        <time>2016-06-26T13:06:22Z</time>
      </trkpt>
      <trkpt lat="43.48118" lon="2.3503">
        <ele>578.37</ele>
        <time>2016-06-26T13:06:43Z</time>
      </trkpt>
      <trkpt lat="43.48127" lon="2.35009">
        <ele>575.97</ele>
        <time>2016-06-26T13:07:02Z</time>
      </trkpt>
      <trkpt lat="43.48133" lon="2.34978">
        <ele>577.41</ele>
        <time>2016-06-26T13:07:24Z</time>
      </trkpt>
      <trkpt lat="43.48128" lon="2.34953">
        <ele>573.08</ele>
        <time>2016-06-26T13:07:43Z</time>
      </trkpt>
      <trkpt lat="43.48116" lon="2.34938">
        <ele>567.32</ele>
        <time>2016-06-26T13:08:02Z</time>
      </trkpt>
      <trkpt lat="43.48093" lon="2.34924">
        <ele>561.55</ele>
        <time>2016-06-26T13:08:24Z</time>
      </trkpt>
      <trkpt lat="43.48075" lon="2.34907">
        <ele>561.07</ele>
        <time>2016-06-26T13:08:48Z</time>
      </trkpt>
      <trkpt lat="43.48071" lon="2.34884">
        <ele>562.99</ele>
        <time>2016-06-26T13:09:06Z</time>
      </trkpt>
      <trkpt lat="43.48069" lon="2.34862">
        <ele>558.18</ele>
        <time>2016-06-26T13:09:27Z</time>
      </trkpt>
      <trkpt lat="43.48071" lon="2.34849">
        <ele>562.51</ele>
        <time>2016-06-26T13:09:44Z</time>
      </trkpt>
      <trkpt lat="43.48069" lon="2.34861">
        <ele>562.03</ele>
        <time>2016-06-26T13:10:09Z</time>
      </trkpt>
      <trkpt lat="43.48075" lon="2.34857">
        <ele>564.43</ele>
        <time>2016-06-26T13:10:33Z</time>
      </trkpt>
      <trkpt lat="43.4808" lon="2.34875">
        <ele>562.51</ele>
        <time>2016-06-26T13:10:53Z</time>
      </trkpt>
      <trkpt lat="43.48093" lon="2.34887">
        <ele>561.55</ele>
        <time>2016-06-26T13:11:13Z</time>
      </trkpt>
      <trkpt lat="43.48112" lon="2.34888">
        <ele>557.7</ele>
        <time>2016-06-26T13:11:35Z</time>
      </trkpt>
      <trkpt lat="43.48134" lon="2.34887">
        <ele>556.26</ele>
        <time>2016-06-26T13:12:00Z</time>
      </trkpt>
      <trkpt lat="43.48148" lon="2.34888">
        <ele>549.53</ele>
        <time>2016-06-26T13:12:18Z</time>
      </trkpt>
      <trkpt lat="43.48167" lon="2.34891">
        <ele>547.13</ele>
        <time>2016-06-26T13:12:39Z</time>
      </trkpt>
      <trkpt lat="43.48183" lon="2.34904">
        <ele>541.36</ele>
        <time>2016-06-26T13:12:59Z</time>
      </trkpt>
      <trkpt lat="43.48195" lon="2.34919">
        <ele>534.15</ele>
        <time>2016-06-26T13:13:19Z</time>
      </trkpt>
      <trkpt lat="43.48201" lon="2.3494">
        <ele>528.38</ele>
        <time>2016-06-26T13:13:39Z</time>
      </trkpt>
      <trkpt lat="43.48205" lon="2.34963">
        <ele>520.69</ele>
        <time>2016-06-26T13:14:01Z</time>
      </trkpt>
      <trkpt lat="43.4821" lon="2.34985">
        <ele>513.96</ele>
        <time>2016-06-26T13:14:20Z</time>
      </trkpt>
      <trkpt lat="43.48216" lon="2.34989">
        <ele>509.64</ele>
        <time>2016-06-26T13:14:37Z</time>
      </trkpt>
      <trkpt lat="43.48222" lon="2.34961">
        <ele>516.37</ele>
        <time>2016-06-26T13:14:58Z</time>
      </trkpt>
      <trkpt lat="43.48226" lon="2.34928">
        <ele>517.81</ele>
        <time>2016-06-26T13:15:21Z</time>
      </trkpt>
      <trkpt lat="43.48222" lon="2.34902">
        <ele>513</ele>
        <time>2016-06-26T13:15:40Z</time>
      </trkpt>
      <trkpt lat="43.48217" lon="2.34877">
        <ele>509.64</ele>
        <time>2016-06-26T13:15:59Z</time>
      </trkpt>
      <trkpt lat="43.48209" lon="2.34856">
        <ele>502.91</ele>
        <time>2016-06-26T13:16:18Z</time>
      </trkpt>
      <trkpt lat="43.48198" lon="2.34839">
        <ele>501.95</ele>
        <time>2016-06-26T13:16:37Z</time>
      </trkpt>
      <trkpt lat="43.48181" lon="2.34824">
        <ele>500.02</ele>
        <time>2016-06-26T13:16:56Z</time>
      </trkpt>
      <trkpt lat="43.48184" lon="2.34813">
        <ele>502.91</ele>
        <time>2016-06-26T13:17:13Z</time>
      </trkpt>
      <trkpt lat="43.48205" lon="2.34824">
        <ele>507.23</ele>
        <time>2016-06-26T13:17:35Z</time>
      </trkpt>
      <trkpt lat="43.48221" lon="2.34834">
        <ele>501.95</ele>
        <time>2016-06-26T13:17:55Z</time>
      </trkpt>
      <trkpt lat="43.48234" lon="2.34852">
        <ele>499.06</ele>
        <time>2016-06-26T13:18:16Z</time>
      </trkpt>
      <trkpt lat="43.48248" lon="2.34868">
        <ele>499.06</ele>
        <time>2016-06-26T13:18:35Z</time>
      </trkpt>
      <trkpt lat="43.48261" lon="2.34886">
        <ele>494.74</ele>
        <time>2016-06-26T13:18:56Z</time>
      </trkpt>
      <trkpt lat="43.48273" lon="2.34905">
        <ele>487.05</ele>
        <time>2016-06-26T13:19:17Z</time>
      </trkpt>
      <trkpt lat="43.48282" lon="2.34921">
        <ele>480.8</ele>
        <time>2016-06-26T13:19:36Z</time>
      </trkpt>
      <trkpt lat="43.48292" lon="2.34939">
        <ele>476.95</ele>
        <time>2016-06-26T13:19:54Z</time>
      </trkpt>
      <trkpt lat="43.48305" lon="2.34949">
        <ele>475.99</ele>
        <time>2016-06-26T13:20:11Z</time>
      </trkpt>
      <trkpt lat="43.48303" lon="2.34924">
        <ele>470.22</ele>
        <time>2016-06-26T13:20:30Z</time>
      </trkpt>
      <trkpt lat="43.48295" lon="2.34909">
        <ele>463.49</ele>
        <time>2016-06-26T13:20:49Z</time>
      </trkpt>
      <trkpt lat="43.48289" lon="2.34892">
        <ele>457.24</ele>
        <time>2016-06-26T13:21:09Z</time>
      </trkpt>
      <trkpt lat="43.48282" lon="2.34871">
        <ele>459.65</ele>
        <time>2016-06-26T13:21:27Z</time>
      </trkpt>
      <trkpt lat="43.48275" lon="2.34848">
        <ele>459.65</ele>
        <time>2016-06-26T13:21:47Z</time>
      </trkpt>
      <trkpt lat="43.48268" lon="2.34829">
        <ele>459.65</ele>
        <time>2016-06-26T13:22:03Z</time>
      </trkpt>
      <trkpt lat="43.48262" lon="2.3481">
        <ele>459.65</ele>
        <time>2016-06-26T13:22:23Z</time>
      </trkpt>
      <trkpt lat="43.48261" lon="2.34792">
        <ele>461.57</ele>
        <time>2016-06-26T13:22:43Z</time>
      </trkpt>
      <trkpt lat="43.48277" lon="2.34812">
        <ele>469.26</ele>
        <time>2016-06-26T13:23:05Z</time>
      </trkpt>
      <trkpt lat="43.4829" lon="2.3483">
        <ele>464.45</ele>
        <time>2016-06-26T13:23:27Z</time>
      </trkpt>
      <trkpt lat="43.48307" lon="2.34847">
        <ele>459.17</ele>
        <time>2016-06-26T13:23:50Z</time>
      </trkpt>
      <trkpt lat="43.48327" lon="2.34862">
        <ele>452.92</ele>
        <time>2016-06-26T13:24:12Z</time>
      </trkpt>
      <trkpt lat="43.48342" lon="2.3488">
        <ele>445.23</ele>
        <time>2016-06-26T13:24:33Z</time>
      </trkpt>
      <trkpt lat="43.48354" lon="2.34897">
        <ele>442.82</ele>
        <time>2016-06-26T13:24:50Z</time>
      </trkpt>
      <trkpt lat="43.48364" lon="2.34916">
        <ele>443.31</ele>
        <time>2016-06-26T13:25:09Z</time>
      </trkpt>
      <trkpt lat="43.4837" lon="2.34936">
        <ele>440.42</ele>
        <time>2016-06-26T13:25:27Z</time>
      </trkpt>
      <trkpt lat="43.48376" lon="2.34958">
        <ele>438.5</ele>
        <time>2016-06-26T13:25:43Z</time>
      </trkpt>
      <trkpt lat="43.48385" lon="2.34978">
        <ele>435.61</ele>
        <time>2016-06-26T13:26:00Z</time>
      </trkpt>
      <trkpt lat="43.48387" lon="2.34998">
        <ele>432.73</ele>
        <time>2016-06-26T13:26:20Z</time>
      </trkpt>
      <trkpt lat="43.48368" lon="2.35015">
        <ele>428.4</ele>
        <time>2016-06-26T13:26:41Z</time>
      </trkpt>
      <trkpt lat="43.48353" lon="2.35037">
        <ele>424.56</ele>
        <time>2016-06-26T13:27:04Z</time>
      </trkpt>
      <trkpt lat="43.48338" lon="2.35062">
        <ele>417.35</ele>
        <time>2016-06-26T13:27:25Z</time>
      </trkpt>
      <trkpt lat="43.48332" lon="2.35072">
        <ele>406.77</ele>
        <time>2016-06-26T13:27:43Z</time>
      </trkpt>
      <trkpt lat="43.48352" lon="2.35073">
        <ele>393.8</ele>
        <time>2016-06-26T13:28:07Z</time>
      </trkpt>
      <trkpt lat="43.48381" lon="2.35075">
        <ele>385.15</ele>
        <time>2016-06-26T13:28:32Z</time>
      </trkpt>
      <trkpt lat="43.48403" lon="2.35084">
        <ele>377.45</ele>
        <time>2016-06-26T13:28:54Z</time>
      </trkpt>
      <trkpt lat="43.48421" lon="2.35094">
        <ele>377.45</ele>
        <time>2016-06-26T13:29:14Z</time>
      </trkpt>
      <trkpt lat="43.48436" lon="2.35102">
        <ele>381.78</ele>
        <time>2016-06-26T13:29:31Z</time>
      </trkpt>
      <trkpt lat="43.48445" lon="2.35122">
        <ele>388.03</ele>
        <time>2016-06-26T13:29:48Z</time>
      </trkpt>
      <trkpt lat="43.48452" lon="2.35136">
        <ele>393.32</ele>
        <time>2016-06-26T13:30:09Z</time>
      </trkpt>
      <trkpt lat="43.48456" lon="2.35134">
        <ele>398.12</ele>
        <time>2016-06-26T13:30:28Z</time>
      </trkpt>
      <trkpt lat="43.48456" lon="2.35131">
        <ele>399.08</ele>
        <time>2016-06-26T13:30:46Z</time>
      </trkpt>
      <trkpt lat="43.48456" lon="2.35127">
        <ele>402.45</ele>
        <time>2016-06-26T13:31:13Z</time>
      </trkpt>
      <trkpt lat="43.48456" lon="2.35133">
        <ele>407.26</ele>
        <time>2016-06-26T13:31:35Z</time>
      </trkpt>
      <trkpt lat="43.48458" lon="2.35132">
        <ele>412.06</ele>
        <time>2016-06-26T13:31:58Z</time>
      </trkpt>
      <trkpt lat="43.48456" lon="2.3513">
        <ele>416.87</ele>
        <time>2016-06-26T13:32:16Z</time>
      </trkpt>
      <trkpt lat="43.48459" lon="2.35129">
        <ele>414.95</ele>
        <time>2016-06-26T13:32:42Z</time>
      </trkpt>
      <trkpt lat="43.48459" lon="2.35127">
        <ele>414.47</ele>
        <time>2016-06-26T13:33:06Z</time>
      </trkpt>
      <trkpt lat="43.48456" lon="2.35126">
        <ele>414.47</ele>
        <time>2016-06-26T13:33:35Z</time>
      </trkpt>
      <trkpt lat="43.48456" lon="2.35126">
        <ele>415.91</ele>
        <time>2016-06-26T13:34:00Z</time>
      </trkpt>
      <trkpt lat="43.48456" lon="2.35129">
        <ele>418.31</ele>
        <time>2016-06-26T13:34:29Z</time>
      </trkpt>
      <trkpt lat="43.48464" lon="2.35109">
        <ele>415.43</ele>
        <time>2016-06-26T13:34:50Z</time>
      </trkpt>
      <trkpt lat="43.48461" lon="2.35105">
        <ele>411.58</ele>
        <time>2016-06-26T13:35:11Z</time>
      </trkpt>
      <trkpt lat="43.48445" lon="2.35077">
        <ele>408.7</ele>
        <time>2016-06-26T13:35:34Z</time>
      </trkpt>
      <trkpt lat="43.48426" lon="2.35063">
        <ele>404.37</ele>
        <time>2016-06-26T13:35:53Z</time>
      </trkpt>
      <trkpt lat="43.48413" lon="2.35045">
        <ele>399.57</ele>
        <time>2016-06-26T13:36:10Z</time>
      </trkpt>
      <trkpt lat="43.48423" lon="2.35026">
        <ele>397.16</ele>
        <time>2016-06-26T13:36:31Z</time>
      </trkpt>
      <trkpt lat="43.48444" lon="2.35016">
        <ele>386.59</ele>
        <time>2016-06-26T13:36:53Z</time>
      </trkpt>
      <trkpt lat="43.48449" lon="2.34996">
        <ele>380.34</ele>
        <time>2016-06-26T13:37:14Z</time>
      </trkpt>
      <trkpt lat="43.48455" lon="2.35007">
        <ele>387.55</ele>
        <time>2016-06-26T13:37:29Z</time>
      </trkpt>
      <trkpt lat="43.48467" lon="2.35032">
        <ele>388.51</ele>
        <time>2016-06-26T13:37:51Z</time>
      </trkpt>
      <trkpt lat="43.48481" lon="2.35043">
        <ele>387.07</ele>
        <time>2016-06-26T13:38:08Z</time>
      </trkpt>
      <trkpt lat="43.485" lon="2.35056">
        <ele>388.03</ele>
        <time>2016-06-26T13:38:28Z</time>
      </trkpt>
      <trkpt lat="43.4852" lon="2.35061">
        <ele>389.47</ele>
        <time>2016-06-26T13:38:47Z</time>
      </trkpt>
      <trkpt lat="43.48535" lon="2.35076">
        <ele>383.22</ele>
        <time>2016-06-26T13:39:05Z</time>
      </trkpt>
      <trkpt lat="43.48548" lon="2.35099">
        <ele>379.86</ele>
        <time>2016-06-26T13:39:26Z</time>
      </trkpt>
      <trkpt lat="43.4856" lon="2.35117">
        <ele>370.73</ele>
        <time>2016-06-26T13:39:46Z</time>
      </trkpt>
      <trkpt lat="43.48576" lon="2.35138">
        <ele>367.36</ele>
        <time>2016-06-26T13:40:07Z</time>
      </trkpt>
      <trkpt lat="43.48586" lon="2.35164">
        <ele>365.44</ele>
        <time>2016-06-26T13:40:26Z</time>
      </trkpt>
      <trkpt lat="43.48592" lon="2.35187">
        <ele>359.67</ele>
        <time>2016-06-26T13:40:47Z</time>
      </trkpt>
      <trkpt lat="43.48592" lon="2.35208">
        <ele>362.55</ele>
        <time>2016-06-26T13:41:00Z</time>
      </trkpt>
      <trkpt lat="43.48593" lon="2.3523">
        <ele>363.04</ele>
        <time>2016-06-26T13:41:17Z</time>
      </trkpt>
      <trkpt lat="43.48597" lon="2.35254">
        <ele>361.11</ele>
        <time>2016-06-26T13:41:36Z</time>
      </trkpt>
      <trkpt lat="43.48601" lon="2.3528">
        <ele>355.83</ele>
        <time>2016-06-26T13:41:56Z</time>
      </trkpt>
      <trkpt lat="43.48604" lon="2.35296">
        <ele>352.94</ele>
        <time>2016-06-26T13:42:13Z</time>
      </trkpt>
      <trkpt lat="43.48608" lon="2.35318">
        <ele>353.42</ele>
        <time>2016-06-26T13:42:30Z</time>
      </trkpt>
      <trkpt lat="43.48609" lon="2.35322">
        <ele>352.94</ele>
        <time>2016-06-26T13:42:33Z</time>
      </trkpt>
      <trkpt lat="43.48618" lon="2.35342">
        <ele>355.34</ele>
        <time>2016-06-26T13:42:51Z</time>
      </trkpt>
      <trkpt lat="43.48626" lon="2.3537">
        <ele>353.9</ele>
        <time>2016-06-26T13:43:12Z</time>
      </trkpt>
      <trkpt lat="43.48635" lon="2.35392">
        <ele>354.38</ele>
        <time>2016-06-26T13:43:27Z</time>
      </trkpt>
      <trkpt lat="43.48646" lon="2.35415">
        <ele>352.94</ele>
        <time>2016-06-26T13:43:46Z</time>
      </trkpt>
      <trkpt lat="43.48655" lon="2.35439">
        <ele>351.5</ele>
        <time>2016-06-26T13:44:03Z</time>
      </trkpt>
      <trkpt lat="43.48666" lon="2.35452">
        <ele>349.1</ele>
        <time>2016-06-26T13:44:20Z</time>
      </trkpt>
      <trkpt lat="43.4867" lon="2.35452">
        <ele>349.58</ele>
        <time>2016-06-26T13:44:35Z</time>
      </trkpt>
      <trkpt lat="43.4867" lon="2.35451">
        <ele>347.65</ele>
        <time>2016-06-26T13:44:50Z</time>
      </trkpt>
      <trkpt lat="43.4867" lon="2.35451">
        <ele>346.69</ele>
        <time>2016-06-26T13:45:09Z</time>
      </trkpt>
      <trkpt lat="43.48668" lon="2.35451">
        <ele>345.25</ele>
        <time>2016-06-26T13:45:32Z</time>
      </trkpt>
      <trkpt lat="43.48664" lon="2.35455">
        <ele>346.21</ele>
        <time>2016-06-26T13:45:46Z</time>
      </trkpt>
      <trkpt lat="43.48656" lon="2.3547">
        <ele>348.62</ele>
        <time>2016-06-26T13:46:03Z</time>
      </trkpt>
      <trkpt lat="43.48649" lon="2.35486">
        <ele>354.38</ele>
        <time>2016-06-26T13:46:24Z</time>
      </trkpt>
      <trkpt lat="43.48636" lon="2.35498">
        <ele>356.79</ele>
        <time>2016-06-26T13:46:44Z</time>
      </trkpt>
      <trkpt lat="43.4862" lon="2.35513">
        <ele>356.79</ele>
        <time>2016-06-26T13:47:04Z</time>
      </trkpt>
      <trkpt lat="43.48607" lon="2.35529">
        <ele>358.23</ele>
        <time>2016-06-26T13:47:26Z</time>
      </trkpt>
      <trkpt lat="43.4859" lon="2.35547">
        <ele>360.63</ele>
        <time>2016-06-26T13:47:47Z</time>
      </trkpt>
      <trkpt lat="43.48567" lon="2.35557">
        <ele>364.96</ele>
        <time>2016-06-26T13:48:06Z</time>
      </trkpt>
      <trkpt lat="43.48548" lon="2.35567">
        <ele>368.32</ele>
        <time>2016-06-26T13:48:26Z</time>
      </trkpt>
      <trkpt lat="43.48531" lon="2.35584">
        <ele>368.32</ele>
        <time>2016-06-26T13:48:47Z</time>
      </trkpt>
      <trkpt lat="43.4852" lon="2.35596">
        <ele>372.17</ele>
        <time>2016-06-26T13:49:06Z</time>
      </trkpt>
      <trkpt lat="43.48509" lon="2.35606">
        <ele>377.45</ele>
        <time>2016-06-26T13:49:23Z</time>
      </trkpt>
      <trkpt lat="43.48496" lon="2.35622">
        <ele>381.78</ele>
        <time>2016-06-26T13:49:41Z</time>
      </trkpt>
      <trkpt lat="43.48484" lon="2.35639">
        <ele>386.11</ele>
        <time>2016-06-26T13:50:00Z</time>
      </trkpt>
      <trkpt lat="43.48468" lon="2.35657">
        <ele>391.39</ele>
        <time>2016-06-26T13:50:21Z</time>
      </trkpt>
      <trkpt lat="43.48459" lon="2.35678">
        <ele>394.76</ele>
        <time>2016-06-26T13:50:40Z</time>
      </trkpt>
      <trkpt lat="43.48447" lon="2.3569">
        <ele>400.05</ele>
        <time>2016-06-26T13:50:58Z</time>
      </trkpt>
      <trkpt lat="43.48435" lon="2.35704">
        <ele>404.37</ele>
        <time>2016-06-26T13:51:19Z</time>
      </trkpt>
      <trkpt lat="43.48422" lon="2.35719">
        <ele>407.26</ele>
        <time>2016-06-26T13:51:41Z</time>
      </trkpt>
      <trkpt lat="43.48405" lon="2.35731">
        <ele>415.43</ele>
        <time>2016-06-26T13:52:04Z</time>
      </trkpt>
      <trkpt lat="43.4839" lon="2.35744">
        <ele>418.79</ele>
        <time>2016-06-26T13:52:26Z</time>
      </trkpt>
      <trkpt lat="43.48375" lon="2.35744">
        <ele>417.35</ele>
        <time>2016-06-26T13:52:45Z</time>
      </trkpt>
      <trkpt lat="43.48368" lon="2.35756">
        <ele>414.95</ele>
        <time>2016-06-26T13:53:07Z</time>
      </trkpt>
      <trkpt lat="43.48377" lon="2.35763">
        <ele>411.1</ele>
        <time>2016-06-26T13:53:35Z</time>
      </trkpt>
      <trkpt lat="43.48376" lon="2.35764">
        <ele>411.58</ele>
        <time>2016-06-26T13:53:55Z</time>
      </trkpt>
      <trkpt lat="43.48375" lon="2.35761">
        <ele>413.02</ele>
        <time>2016-06-26T13:54:22Z</time>
      </trkpt>
      <trkpt lat="43.48376" lon="2.35762">
        <ele>414.95</ele>
        <time>2016-06-26T13:54:45Z</time>
      </trkpt>
      <trkpt lat="43.48384" lon="2.35755">
        <ele>418.79</ele>
        <time>2016-06-26T13:55:06Z</time>
      </trkpt>
      <trkpt lat="43.48392" lon="2.35749">
        <ele>424.56</ele>
        <time>2016-06-26T13:55:25Z</time>
      </trkpt>
      <trkpt lat="43.48405" lon="2.35742">
        <ele>419.27</ele>
        <time>2016-06-26T13:55:43Z</time>
      </trkpt>
      <trkpt lat="43.48424" lon="2.35735">
        <ele>413.5</ele>
        <time>2016-06-26T13:56:06Z</time>
      </trkpt>
      <trkpt lat="43.48442" lon="2.35729">
        <ele>415.43</ele>
        <time>2016-06-26T13:56:31Z</time>
      </trkpt>
      <trkpt lat="43.48456" lon="2.35713">
        <ele>412.54</ele>
        <time>2016-06-26T13:56:54Z</time>
      </trkpt>
      <trkpt lat="43.48468" lon="2.35698">
        <ele>403.89</ele>
        <time>2016-06-26T13:57:15Z</time>
      </trkpt>
      <trkpt lat="43.48481" lon="2.35685">
        <ele>398.6</ele>
        <time>2016-06-26T13:57:35Z</time>
      </trkpt>
      <trkpt lat="43.48498" lon="2.35674">
        <ele>390.43</ele>
        <time>2016-06-26T13:57:56Z</time>
      </trkpt>
      <trkpt lat="43.48514" lon="2.35668">
        <ele>388.51</ele>
        <time>2016-06-26T13:58:18Z</time>
      </trkpt>
      <trkpt lat="43.48531" lon="2.35662">
        <ele>385.63</ele>
        <time>2016-06-26T13:58:39Z</time>
      </trkpt>
      <trkpt lat="43.48548" lon="2.35652">
        <ele>381.78</ele>
        <time>2016-06-26T13:58:58Z</time>
      </trkpt>
      <trkpt lat="43.4857" lon="2.35649">
        <ele>374.57</ele>
        <time>2016-06-26T13:59:20Z</time>
      </trkpt>
      <trkpt lat="43.48588" lon="2.35647">
        <ele>372.65</ele>
        <time>2016-06-26T13:59:38Z</time>
      </trkpt>
      <trkpt lat="43.48603" lon="2.35642">
        <ele>372.65</ele>
        <time>2016-06-26T13:59:58Z</time>
      </trkpt>
      <trkpt lat="43.48623" lon="2.35647">
        <ele>369.28</ele>
        <time>2016-06-26T14:00:18Z</time>
      </trkpt>
      <trkpt lat="43.4864" lon="2.35647">
        <ele>367.84</ele>
        <time>2016-06-26T14:00:36Z</time>
      </trkpt>
      <trkpt lat="43.4865" lon="2.35653">
        <ele>366.88</ele>
        <time>2016-06-26T14:00:54Z</time>
      </trkpt>
      <trkpt lat="43.48658" lon="2.35656">
        <ele>371.21</ele>
        <time>2016-06-26T14:01:12Z</time>
      </trkpt>
      <trkpt lat="43.48677" lon="2.3565">
        <ele>370.24</ele>
        <time>2016-06-26T14:01:35Z</time>
      </trkpt>
      <trkpt lat="43.48685" lon="2.35646">
        <ele>366.88</ele>
        <time>2016-06-26T14:01:56Z</time>
      </trkpt>
      <trkpt lat="43.48697" lon="2.35645">
        <ele>371.69</ele>
        <time>2016-06-26T14:02:15Z</time>
      </trkpt>
      <trkpt lat="43.48708" lon="2.35643">
        <ele>369.28</ele>
        <time>2016-06-26T14:02:36Z</time>
      </trkpt>
      <trkpt lat="43.48718" lon="2.35643">
        <ele>366.4</ele>
        <time>2016-06-26T14:02:56Z</time>
      </trkpt>
      <trkpt lat="43.48725" lon="2.35643">
        <ele>368.32</ele>
        <time>2016-06-26T14:03:09Z</time>
      </trkpt>
      <trkpt lat="43.48729" lon="2.35638">
        <ele>369.28</ele>
        <time>2016-06-26T14:03:22Z</time>
      </trkpt>
      <trkpt lat="43.48741" lon="2.35632">
        <ele>369.76</ele>
        <time>2016-06-26T14:03:38Z</time>
      </trkpt>
      <trkpt lat="43.48748" lon="2.35624">
        <ele>368.32</ele>
        <time>2016-06-26T14:03:51Z</time>
      </trkpt>
      <trkpt lat="43.48755" lon="2.35619">
        <ele>367.84</ele>
        <time>2016-06-26T14:04:01Z</time>
      </trkpt>
      <trkpt lat="43.48756" lon="2.35617">
        <ele>367.84</ele>
        <time>2016-06-26T14:04:18Z</time>
      </trkpt>
      <trkpt lat="43.48751" lon="2.35611">
        <ele>368.8</ele>
        <time>2016-06-26T14:04:32Z</time>
      </trkpt>
      <trkpt lat="43.48758" lon="2.35601">
        <ele>367.36</ele>
        <time>2016-06-26T14:04:49Z</time>
      </trkpt>
      <trkpt lat="43.48777" lon="2.35591">
        <ele>365.92</ele>
        <time>2016-06-26T14:05:11Z</time>
      </trkpt>
      <trkpt lat="43.48779" lon="2.35579">
        <ele>358.71</ele>
        <time>2016-06-26T14:05:31Z</time>
      </trkpt>
      <trkpt lat="43.48785" lon="2.35564">
        <ele>351.02</ele>
        <time>2016-06-26T14:05:48Z</time>
      </trkpt>
      <trkpt lat="43.48784" lon="2.35566">
        <ele>341.89</ele>
        <time>2016-06-26T14:06:14Z</time>
      </trkpt>
      <trkpt lat="43.48793" lon="2.35568">
        <ele>332.75</ele>
        <time>2016-06-26T14:06:38Z</time>
      </trkpt>
      <trkpt lat="43.48787" lon="2.35556">
        <ele>332.75</ele>
        <time>2016-06-26T14:06:57Z</time>
      </trkpt>
      <trkpt lat="43.48795" lon="2.35549">
        <ele>334.68</ele>
        <time>2016-06-26T14:07:15Z</time>
      </trkpt>
      <trkpt lat="43.48794" lon="2.35556">
        <ele>327.95</ele>
        <time>2016-06-26T14:07:33Z</time>
      </trkpt>
      <trkpt lat="43.48794" lon="2.35559">
        <ele>324.58</ele>
        <time>2016-06-26T14:07:48Z</time>
      </trkpt>
      <trkpt lat="43.48799" lon="2.35553">
        <ele>329.39</ele>
        <time>2016-06-26T14:08:08Z</time>
      </trkpt>
      <trkpt lat="43.48798" lon="2.35552">
        <ele>332.27</ele>
        <time>2016-06-26T14:08:28Z</time>
      </trkpt>
      <trkpt lat="43.48793" lon="2.35551">
        <ele>336.6</ele>
        <time>2016-06-26T14:08:49Z</time>
      </trkpt>
      <trkpt lat="43.48784" lon="2.35559">
        <ele>340.44</ele>
        <time>2016-06-26T14:09:15Z</time>
      </trkpt>
      <trkpt lat="43.48787" lon="2.35561">
        <ele>345.73</ele>
        <time>2016-06-26T14:09:42Z</time>
      </trkpt>
      <trkpt lat="43.48792" lon="2.35556">
        <ele>348.62</ele>
        <time>2016-06-26T14:10:03Z</time>
      </trkpt>
      <trkpt lat="43.48803" lon="2.35549">
        <ele>350.54</ele>
        <time>2016-06-26T14:10:19Z</time>
      </trkpt>
      <trkpt lat="43.48816" lon="2.35537">
        <ele>347.17</ele>
        <time>2016-06-26T14:10:35Z</time>
      </trkpt>
      <trkpt lat="43.48821" lon="2.3554">
        <ele>345.25</ele>
        <time>2016-06-26T14:10:50Z</time>
      </trkpt>
      <trkpt lat="43.48827" lon="2.35547">
        <ele>345.73</ele>
        <time>2016-06-26T14:11:05Z</time>
      </trkpt>
      <trkpt lat="43.48823" lon="2.35548">
        <ele>344.29</ele>
        <time>2016-06-26T14:11:20Z</time>
      </trkpt>
      <trkpt lat="43.48833" lon="2.35545">
        <ele>341.41</ele>
        <time>2016-06-26T14:11:35Z</time>
      </trkpt>
      <trkpt lat="43.48841" lon="2.35535">
        <ele>336.12</ele>
        <time>2016-06-26T14:11:52Z</time>
      </trkpt>
      <trkpt lat="43.48847" lon="2.35517">
        <ele>332.27</ele>
        <time>2016-06-26T14:12:10Z</time>
      </trkpt>
      <trkpt lat="43.48851" lon="2.35505">
        <ele>331.79</ele>
        <time>2016-06-26T14:12:25Z</time>
      </trkpt>
      <trkpt lat="43.48863" lon="2.35497">
        <ele>329.39</ele>
        <time>2016-06-26T14:12:42Z</time>
      </trkpt>
      <trkpt lat="43.48868" lon="2.3548">
        <ele>328.91</ele>
        <time>2016-06-26T14:12:56Z</time>
      </trkpt>
      <trkpt lat="43.48875" lon="2.35469">
        <ele>326.5</ele>
        <time>2016-06-26T14:13:11Z</time>
      </trkpt>
      <trkpt lat="43.48873" lon="2.35453">
        <ele>326.99</ele>
        <time>2016-06-26T14:13:24Z</time>
      </trkpt>
      <trkpt lat="43.48871" lon="2.35452">
        <ele>326.02</ele>
        <time>2016-06-26T14:13:28Z</time>
      </trkpt>
      <trkpt lat="43.4886" lon="2.3545">
        <ele>323.14</ele>
        <time>2016-06-26T14:13:45Z</time>
      </trkpt>
      <trkpt lat="43.48854" lon="2.35447">
        <ele>322.66</ele>
        <time>2016-06-26T14:14:00Z</time>
      </trkpt>
      <trkpt lat="43.48853" lon="2.35447">
        <ele>323.62</ele>
        <time>2016-06-26T14:14:22Z</time>
      </trkpt>
      <trkpt lat="43.48852" lon="2.35449">
        <ele>325.54</ele>
        <time>2016-06-26T14:14:45Z</time>
      </trkpt>
      <trkpt lat="43.48853" lon="2.35447">
        <ele>326.99</ele>
        <time>2016-06-26T14:15:01Z</time>
      </trkpt>
      <trkpt lat="43.48853" lon="2.35447">
        <ele>326.5</ele>
        <time>2016-06-26T14:15:24Z</time>
      </trkpt>
    </trkseg>
  </trk>
</gpx>